<?xml version='1.0' encoding='UTF-8'?><gpx version="1.1" creator="JPX - https://github.com/jenetics/jpx" xmlns="http://www.topografix.com/GPX/1/1"><trk><trkseg><trkpt lat="43.7467634" lon="11.3131086"><ele>106.0</ele><time>2026-04-25T12:19:42.199Z</time></trkpt><trkpt lat="43.746761" lon="11.3132002"><ele>106.0</ele><time>2026-04-25T12:19:44.199Z</time></trkpt><trkpt lat="43.7467716" lon="11.3133218"><ele>106.0</ele><time>2026-04-25T12:19:46.199Z</time></trkpt><trkpt lat="43.7468075" lon="11.3135357"><ele>106.0</ele><time>2026-04-25T12:19:48.199Z</time></trkpt><trkpt lat="43.7468468" lon="11.3136788"><ele>106.0</ele><time>2026-04-25T12:19:49.198Z</time></trkpt><trkpt lat="43.7468943" lon="11.3138215"><ele>106.5</ele><time>2026-04-25T12:19:50.199Z</time></trkpt><trkpt lat="43.7469487" lon="11.3139721"><ele>107.0</ele><time>2026-04-25T12:19:51.199Z</time></trkpt><trkpt lat="43.7470006" lon="11.3141386"><ele>107.5</ele><time>2026-04-25T12:19:52.199Z</time></trkpt><trkpt lat="43.7470561" lon="11.3143085"><ele>108.0</ele><time>2026-04-25T12:19:53.199Z</time></trkpt><trkpt lat="43.7471151" lon="11.3144784"><ele>108.0</ele><time>2026-04-25T12:19:54.199Z</time></trkpt><trkpt lat="43.7471729" lon="11.31465"><ele>108.0</ele><time>2026-04-25T12:19:55.198Z</time></trkpt><trkpt lat="43.7472313" lon="11.3148475"><ele>108.0</ele><time>2026-04-25T12:19:56.199Z</time></trkpt><trkpt lat="43.7472959" lon="11.3150367"><ele>108.0</ele><time>2026-04-25T12:19:57.199Z</time></trkpt><trkpt lat="43.7473713" lon="11.3152215"><ele>108.0</ele><time>2026-04-25T12:19:58.199Z</time></trkpt><trkpt lat="43.7474488" lon="11.315412"><ele>108.0</ele><time>2026-04-25T12:19:59.199Z</time></trkpt><trkpt lat="43.7475281" lon="11.3156012"><ele>108.0</ele><time>2026-04-25T12:20:00.199Z</time></trkpt><trkpt lat="43.7476066" lon="11.3158111"><ele>109.66666666666666</ele><time>2026-04-25T12:20:01.199Z</time></trkpt><trkpt lat="43.7476833" lon="11.315999"><ele>111.33333333333333</ele><time>2026-04-25T12:20:02.199Z</time></trkpt><trkpt lat="43.747759" lon="11.3161772"><ele>113.0</ele><time>2026-04-25T12:20:03.199Z</time></trkpt><trkpt lat="43.7478338" lon="11.3163484"><ele>112.75</ele><time>2026-04-25T12:20:04.198Z</time></trkpt><trkpt lat="43.7479094" lon="11.3165145"><ele>112.5</ele><time>2026-04-25T12:20:05.199Z</time></trkpt><trkpt lat="43.7479933" lon="11.3166877"><ele>112.25</ele><time>2026-04-25T12:20:06.199Z</time></trkpt><trkpt lat="43.7480864" lon="11.316809"><ele>112.0</ele><time>2026-04-25T12:20:07.199Z</time></trkpt><trkpt lat="43.7481942" lon="11.3169225"><ele>112.0</ele><time>2026-04-25T12:20:08.199Z</time></trkpt><trkpt lat="43.7483092" lon="11.317035"><ele>112.0</ele><time>2026-04-25T12:20:09.199Z</time></trkpt><trkpt lat="43.7484282" lon="11.3171312"><ele>112.0</ele><time>2026-04-25T12:20:10.199Z</time></trkpt><trkpt lat="43.7485523" lon="11.3172309"><ele>112.0</ele><time>2026-04-25T12:20:11.199Z</time></trkpt><trkpt lat="43.7486821" lon="11.3173738"><ele>113.5</ele><time>2026-04-25T12:20:12.199Z</time></trkpt><trkpt lat="43.7488076" lon="11.3174789"><ele>115.0</ele><time>2026-04-25T12:20:13.199Z</time></trkpt><trkpt lat="43.7489302" lon="11.3175825"><ele>116.5</ele><time>2026-04-25T12:20:14.199Z</time></trkpt><trkpt lat="43.7490439" lon="11.3176822"><ele>118.0</ele><time>2026-04-25T12:20:15.199Z</time></trkpt><trkpt lat="43.7491611" lon="11.3177709"><ele>118.0</ele><time>2026-04-25T12:20:16.199Z</time></trkpt><trkpt lat="43.7492777" lon="11.3178455"><ele>118.00000000000001</ele><time>2026-04-25T12:20:17.199Z</time></trkpt><trkpt lat="43.7493765" lon="11.3179147"><ele>118.00000000000001</ele><time>2026-04-25T12:20:18.199Z</time></trkpt><trkpt lat="43.7494742" lon="11.3179589"><ele>118.0</ele><time>2026-04-25T12:20:19.198Z</time></trkpt><trkpt lat="43.7495662" lon="11.3179944"><ele>118.0</ele><time>2026-04-25T12:20:20.199Z</time></trkpt><trkpt lat="43.7496486" lon="11.318024"><ele>116.0</ele><time>2026-04-25T12:20:21.199Z</time></trkpt><trkpt lat="43.7497156" lon="11.3180683"><ele>114.00000000000001</ele><time>2026-04-25T12:20:22.199Z</time></trkpt><trkpt lat="43.7497692" lon="11.318141"><ele>112.00000000000001</ele><time>2026-04-25T12:20:23.199Z</time></trkpt><trkpt lat="43.7498073" lon="11.318211"><ele>110.0</ele><time>2026-04-25T12:20:24.198Z</time></trkpt><trkpt lat="43.7497729" lon="11.3184021"><ele>108.0</ele><time>2026-04-25T12:20:26.198Z</time></trkpt><trkpt lat="43.7497104" lon="11.3185233"><ele>108.0</ele><time>2026-04-25T12:20:27.199Z</time></trkpt><trkpt lat="43.7496484" lon="11.3186017"><ele>108.00000000000001</ele><time>2026-04-25T12:20:28.199Z</time></trkpt><trkpt lat="43.7496139" lon="11.3187112"><ele>108.00000000000001</ele><time>2026-04-25T12:20:29.198Z</time></trkpt><trkpt lat="43.7496015" lon="11.3188013"><ele>108.0</ele><time>2026-04-25T12:20:30.199Z</time></trkpt><trkpt lat="43.7496748" lon="11.3189936"><ele>108.0</ele><time>2026-04-25T12:20:32.199Z</time></trkpt><trkpt lat="43.7497529" lon="11.3191043"><ele>107.5</ele><time>2026-04-25T12:20:33.198Z</time></trkpt><trkpt lat="43.7498375" lon="11.3191674"><ele>107.0</ele><time>2026-04-25T12:20:34.199Z</time></trkpt><trkpt lat="43.7499273" lon="11.3192054"><ele>106.5</ele><time>2026-04-25T12:20:35.199Z</time></trkpt><trkpt lat="43.7500172" lon="11.3192165"><ele>106.0</ele><time>2026-04-25T12:20:36.199Z</time></trkpt><trkpt lat="43.7500893" lon="11.3191778"><ele>105.5</ele><time>2026-04-25T12:20:37.198Z</time></trkpt><trkpt lat="43.7501683" lon="11.3191369"><ele>105.0</ele><time>2026-04-25T12:20:38.199Z</time></trkpt><trkpt lat="43.7502475" lon="11.3190468"><ele>103.83333333333333</ele><time>2026-04-25T12:20:39.199Z</time></trkpt><trkpt lat="43.7502923" lon="11.3189157"><ele>102.66666666666666</ele><time>2026-04-25T12:20:40.199Z</time></trkpt><trkpt lat="43.7503668" lon="11.3188809"><ele>101.5</ele><time>2026-04-25T12:20:41.199Z</time></trkpt><trkpt lat="43.7504422" lon="11.3188903"><ele>100.33333333333333</ele><time>2026-04-25T12:20:42.198Z</time></trkpt><trkpt lat="43.7504923" lon="11.3189521"><ele>99.16666666666666</ele><time>2026-04-25T12:20:43.199Z</time></trkpt><trkpt lat="43.7505329" lon="11.3190189"><ele>98.0</ele><time>2026-04-25T12:20:44.199Z</time></trkpt><trkpt lat="43.7505506" lon="11.319137"><ele>97.60000000000001</ele><time>2026-04-25T12:20:46.198Z</time></trkpt><trkpt lat="43.7505602" lon="11.3193616"><ele>97.2</ele><time>2026-04-25T12:20:47.199Z</time></trkpt><trkpt lat="43.7505964" lon="11.3194859"><ele>96.8</ele><time>2026-04-25T12:20:48.198Z</time></trkpt><trkpt lat="43.7506578" lon="11.3195687"><ele>96.4</ele><time>2026-04-25T12:20:49.199Z</time></trkpt><trkpt lat="43.7507379" lon="11.3196184"><ele>96.0</ele><time>2026-04-25T12:20:50.199Z</time></trkpt><trkpt lat="43.7508172" lon="11.3195949"><ele>96.0</ele><time>2026-04-25T12:20:51.199Z</time></trkpt><trkpt lat="43.7508842" lon="11.3195461"><ele>96.0</ele><time>2026-04-25T12:20:52.199Z</time></trkpt><trkpt lat="43.7509489" lon="11.3194478"><ele>96.0</ele><time>2026-04-25T12:20:53.199Z</time></trkpt><trkpt lat="43.7509822" lon="11.3193498"><ele>96.0</ele><time>2026-04-25T12:20:54.198Z</time></trkpt><trkpt lat="43.7510297" lon="11.3192788"><ele>96.0</ele><time>2026-04-25T12:20:55.199Z</time></trkpt><trkpt lat="43.7511343" lon="11.3191859"><ele>96.0</ele><time>2026-04-25T12:20:57.199Z</time></trkpt><trkpt lat="43.7512924" lon="11.3192095"><ele>93.5</ele><time>2026-04-25T12:20:59.199Z</time></trkpt><trkpt lat="43.7513714" lon="11.3192593"><ele>91.0</ele><time>2026-04-25T12:21:00.199Z</time></trkpt><trkpt lat="43.7514004" lon="11.3193672"><ele>88.5</ele><time>2026-04-25T12:21:01.199Z</time></trkpt><trkpt lat="43.7514544" lon="11.3194518"><ele>86.0</ele><time>2026-04-25T12:21:02.199Z</time></trkpt><trkpt lat="43.7515012" lon="11.3195252"><ele>83.5</ele><time>2026-04-25T12:21:03.199Z</time></trkpt><trkpt lat="43.7515579" lon="11.3195789"><ele>81.0</ele><time>2026-04-25T12:21:04.199Z</time></trkpt><trkpt lat="43.7516241" lon="11.3196459"><ele>81.0</ele><time>2026-04-25T12:21:05.199Z</time></trkpt><trkpt lat="43.7516918" lon="11.3196965"><ele>81.0</ele><time>2026-04-25T12:21:06.198Z</time></trkpt><trkpt lat="43.7517708" lon="11.3197452"><ele>81.0</ele><time>2026-04-25T12:21:07.199Z</time></trkpt><trkpt lat="43.7518515" lon="11.3197837"><ele>81.0</ele><time>2026-04-25T12:21:08.199Z</time></trkpt><trkpt lat="43.7519349" lon="11.3198218"><ele>81.0</ele><time>2026-04-25T12:21:09.199Z</time></trkpt><trkpt lat="43.7520048" lon="11.3198551"><ele>81.0</ele><time>2026-04-25T12:21:11.199Z</time></trkpt><trkpt lat="43.7520912" lon="11.3199146"><ele>79.83333333333333</ele><time>2026-04-25T12:21:15.198Z</time></trkpt><trkpt lat="43.7521208" lon="11.3200348"><ele>78.66666666666667</ele><time>2026-04-25T12:21:17.199Z</time></trkpt><trkpt lat="43.7521838" lon="11.3201945"><ele>77.5</ele><time>2026-04-25T12:21:19.198Z</time></trkpt><trkpt lat="43.7522354" lon="11.3202643"><ele>76.33333333333334</ele><time>2026-04-25T12:21:20.199Z</time></trkpt><trkpt lat="43.7522936" lon="11.3203288"><ele>75.16666666666667</ele><time>2026-04-25T12:21:21.199Z</time></trkpt><trkpt lat="43.7523533" lon="11.3203952"><ele>74.0</ele><time>2026-04-25T12:21:22.199Z</time></trkpt><trkpt lat="43.7524082" lon="11.320479"><ele>74.60000000000001</ele><time>2026-04-25T12:21:23.199Z</time></trkpt><trkpt lat="43.7524715" lon="11.3205903"><ele>75.2</ele><time>2026-04-25T12:21:24.198Z</time></trkpt><trkpt lat="43.7525319" lon="11.320696"><ele>75.80000000000001</ele><time>2026-04-25T12:21:25.198Z</time></trkpt><trkpt lat="43.7525954" lon="11.3208073"><ele>76.4</ele><time>2026-04-25T12:21:26.198Z</time></trkpt><trkpt lat="43.7526665" lon="11.3209294"><ele>77.0</ele><time>2026-04-25T12:21:27.199Z</time></trkpt><trkpt lat="43.7527423" lon="11.3210378"><ele>75.75</ele><time>2026-04-25T12:21:28.198Z</time></trkpt><trkpt lat="43.7528107" lon="11.3211528"><ele>74.5</ele><time>2026-04-25T12:21:29.199Z</time></trkpt><trkpt lat="43.7528905" lon="11.3212862"><ele>73.25</ele><time>2026-04-25T12:21:30.198Z</time></trkpt><trkpt lat="43.7529535" lon="11.3214067"><ele>72.0</ele><time>2026-04-25T12:21:31.199Z</time></trkpt><trkpt lat="43.7530344" lon="11.3215469"><ele>72.0</ele><time>2026-04-25T12:21:32.199Z</time></trkpt><trkpt lat="43.7531117" lon="11.3216867"><ele>72.0</ele><time>2026-04-25T12:21:33.199Z</time></trkpt><trkpt lat="43.7531924" lon="11.3218209"><ele>72.0</ele><time>2026-04-25T12:21:34.199Z</time></trkpt><trkpt lat="43.7532784" lon="11.3219692"><ele>72.0</ele><time>2026-04-25T12:21:35.199Z</time></trkpt><trkpt lat="43.7533564" lon="11.3221076"><ele>72.0</ele><time>2026-04-25T12:21:36.199Z</time></trkpt><trkpt lat="43.7534422" lon="11.322246"><ele>72.0</ele><time>2026-04-25T12:21:37.199Z</time></trkpt><trkpt lat="43.753531" lon="11.3223764"><ele>72.0</ele><time>2026-04-25T12:21:38.199Z</time></trkpt><trkpt lat="43.7536275" lon="11.3224976"><ele>72.0</ele><time>2026-04-25T12:21:39.199Z</time></trkpt><trkpt lat="43.7537249" lon="11.3226125"><ele>72.0</ele><time>2026-04-25T12:21:40.199Z</time></trkpt><trkpt lat="43.7538308" lon="11.322726"><ele>72.0</ele><time>2026-04-25T12:21:41.199Z</time></trkpt><trkpt lat="43.7539334" lon="11.3228493"><ele>72.0</ele><time>2026-04-25T12:21:42.199Z</time></trkpt><trkpt lat="43.7540258" lon="11.3229764"><ele>72.0</ele><time>2026-04-25T12:21:43.199Z</time></trkpt><trkpt lat="43.7541199" lon="11.3231018"><ele>72.25</ele><time>2026-04-25T12:21:44.199Z</time></trkpt><trkpt lat="43.7542156" lon="11.3232209"><ele>72.5</ele><time>2026-04-25T12:21:45.199Z</time></trkpt><trkpt lat="43.7543134" lon="11.3233442"><ele>72.75</ele><time>2026-04-25T12:21:46.199Z</time></trkpt><trkpt lat="43.7544145" lon="11.3234721"><ele>73.0</ele><time>2026-04-25T12:21:47.199Z</time></trkpt><trkpt lat="43.7545144" lon="11.3235986"><ele>72.0</ele><time>2026-04-25T12:21:48.199Z</time></trkpt><trkpt lat="43.7545964" lon="11.3237227"><ele>71.0</ele><time>2026-04-25T12:21:49.199Z</time></trkpt><trkpt lat="43.7546886" lon="11.3238469"><ele>70.0</ele><time>2026-04-25T12:21:50.199Z</time></trkpt><trkpt lat="43.7547873" lon="11.3239692"><ele>69.0</ele><time>2026-04-25T12:21:51.199Z</time></trkpt><trkpt lat="43.7548733" lon="11.3240944"><ele>69.0</ele><time>2026-04-25T12:21:52.199Z</time></trkpt><trkpt lat="43.7549776" lon="11.3242205"><ele>69.0</ele><time>2026-04-25T12:21:53.199Z</time></trkpt><trkpt lat="43.755082" lon="11.3243536"><ele>69.0</ele><time>2026-04-25T12:21:54.199Z</time></trkpt><trkpt lat="43.7551887" lon="11.3244878"><ele>69.0</ele><time>2026-04-25T12:21:55.199Z</time></trkpt><trkpt lat="43.7552921" lon="11.3246265"><ele>69.0</ele><time>2026-04-25T12:21:56.198Z</time></trkpt><trkpt lat="43.7553929" lon="11.3247553"><ele>69.0</ele><time>2026-04-25T12:21:57.198Z</time></trkpt><trkpt lat="43.7554919" lon="11.3248694"><ele>69.0</ele><time>2026-04-25T12:21:58.198Z</time></trkpt><trkpt lat="43.7555784" lon="11.324971"><ele>69.0</ele><time>2026-04-25T12:21:59.199Z</time></trkpt><trkpt lat="43.7556567" lon="11.3250609"><ele>69.0</ele><time>2026-04-25T12:22:00.199Z</time></trkpt><trkpt lat="43.7557288" lon="11.3251389"><ele>69.0</ele><time>2026-04-25T12:22:01.199Z</time></trkpt><trkpt lat="43.7557989" lon="11.3252081"><ele>69.0</ele><time>2026-04-25T12:22:02.198Z</time></trkpt><trkpt lat="43.7558638" lon="11.3252752"><ele>69.0</ele><time>2026-04-25T12:22:03.199Z</time></trkpt><trkpt lat="43.7559214" lon="11.3253719"><ele>69.0</ele><time>2026-04-25T12:22:04.199Z</time></trkpt><trkpt lat="43.7559776" lon="11.3254544"><ele>69.0</ele><time>2026-04-25T12:22:05.199Z</time></trkpt><trkpt lat="43.7560425" lon="11.3255223"><ele>69.0</ele><time>2026-04-25T12:22:06.199Z</time></trkpt><trkpt lat="43.7561178" lon="11.3255646"><ele>69.0</ele><time>2026-04-25T12:22:07.198Z</time></trkpt><trkpt lat="43.7561978" lon="11.3255772"><ele>69.0</ele><time>2026-04-25T12:22:08.199Z</time></trkpt><trkpt lat="43.7562709" lon="11.3255915"><ele>69.0</ele><time>2026-04-25T12:22:09.199Z</time></trkpt><trkpt lat="43.756355" lon="11.3256147"><ele>69.0</ele><time>2026-04-25T12:22:10.198Z</time></trkpt><trkpt lat="43.7564289" lon="11.3256758"><ele>69.0</ele><time>2026-04-25T12:22:11.199Z</time></trkpt><trkpt lat="43.7564922" lon="11.3257737"><ele>69.0</ele><time>2026-04-25T12:22:12.199Z</time></trkpt><trkpt lat="43.7565401" lon="11.3259037"><ele>69.0</ele><time>2026-04-25T12:22:13.199Z</time></trkpt><trkpt lat="43.7565696" lon="11.3260626"><ele>69.0</ele><time>2026-04-25T12:22:14.199Z</time></trkpt><trkpt lat="43.7565933" lon="11.3262377"><ele>69.0</ele><time>2026-04-25T12:22:15.199Z</time></trkpt><trkpt lat="43.7566147" lon="11.3264228"><ele>69.5</ele><time>2026-04-25T12:22:16.199Z</time></trkpt><trkpt lat="43.7566365" lon="11.3266046"><ele>70.0</ele><time>2026-04-25T12:22:17.199Z</time></trkpt><trkpt lat="43.7566909" lon="11.3267913"><ele>70.5</ele><time>2026-04-25T12:22:18.198Z</time></trkpt><trkpt lat="43.7567693" lon="11.3269573"><ele>71.0</ele><time>2026-04-25T12:22:19.199Z</time></trkpt><trkpt lat="43.7568777" lon="11.3271043"><ele>71.0</ele><time>2026-04-25T12:22:20.199Z</time></trkpt><trkpt lat="43.75701" lon="11.3272172"><ele>71.0</ele><time>2026-04-25T12:22:21.198Z</time></trkpt><trkpt lat="43.7571487" lon="11.3273059"><ele>71.0</ele><time>2026-04-25T12:22:22.199Z</time></trkpt><trkpt lat="43.7572935" lon="11.327378"><ele>71.5</ele><time>2026-04-25T12:22:23.199Z</time></trkpt><trkpt lat="43.7574316" lon="11.3274514"><ele>72.0</ele><time>2026-04-25T12:22:24.199Z</time></trkpt><trkpt lat="43.7575596" lon="11.3275217"><ele>72.5</ele><time>2026-04-25T12:22:25.199Z</time></trkpt><trkpt lat="43.7576803" lon="11.3275847"><ele>73.0</ele><time>2026-04-25T12:22:26.199Z</time></trkpt><trkpt lat="43.7577927" lon="11.3276481"><ele>73.0</ele><time>2026-04-25T12:22:27.198Z</time></trkpt><trkpt lat="43.7579069" lon="11.3277281"><ele>73.0</ele><time>2026-04-25T12:22:28.199Z</time></trkpt><trkpt lat="43.7579797" lon="11.3277421"><ele>73.0</ele><time>2026-04-25T12:22:29.199Z</time></trkpt><trkpt lat="43.758064" lon="11.3277955"><ele>73.0</ele><time>2026-04-25T12:22:30.199Z</time></trkpt><trkpt lat="43.758127" lon="11.3278153"><ele>73.0</ele><time>2026-04-25T12:22:31.199Z</time></trkpt><trkpt lat="43.7581867" lon="11.3278546"><ele>73.0</ele><time>2026-04-25T12:22:32.199Z</time></trkpt><trkpt lat="43.7582693" lon="11.3279155"><ele>73.0</ele><time>2026-04-25T12:22:34.198Z</time></trkpt><trkpt lat="43.7583384" lon="11.3279628"><ele>73.0</ele><time>2026-04-25T12:22:37.199Z</time></trkpt><trkpt lat="43.7583955" lon="11.3280037"><ele>73.0</ele><time>2026-04-25T12:22:48.199Z</time></trkpt><trkpt lat="43.7584779" lon="11.3280535"><ele>73.0</ele><time>2026-04-25T12:22:50.198Z</time></trkpt><trkpt lat="43.7585428" lon="11.3280877"><ele>73.0</ele><time>2026-04-25T12:22:51.199Z</time></trkpt><trkpt lat="43.758636" lon="11.328133"><ele>73.0</ele><time>2026-04-25T12:22:52.198Z</time></trkpt><trkpt lat="43.7587404" lon="11.3281827"><ele>72.0</ele><time>2026-04-25T12:22:53.199Z</time></trkpt><trkpt lat="43.7588558" lon="11.3282367"><ele>71.0</ele><time>2026-04-25T12:22:54.199Z</time></trkpt><trkpt lat="43.7589788" lon="11.3282804"><ele>70.0</ele><time>2026-04-25T12:22:55.199Z</time></trkpt><trkpt lat="43.7591151" lon="11.3283475"><ele>69.0</ele><time>2026-04-25T12:22:56.199Z</time></trkpt><trkpt lat="43.759259" lon="11.3284263"><ele>69.33333333333333</ele><time>2026-04-25T12:22:57.199Z</time></trkpt><trkpt lat="43.7594005" lon="11.3285207"><ele>69.66666666666666</ele><time>2026-04-25T12:22:58.199Z</time></trkpt><trkpt lat="43.7595439" lon="11.3286349"><ele>70.0</ele><time>2026-04-25T12:22:59.198Z</time></trkpt><trkpt lat="43.7596883" lon="11.3287817"><ele>70.33333333333333</ele><time>2026-04-25T12:23:00.198Z</time></trkpt><trkpt lat="43.7598222" lon="11.328924"><ele>70.66666666666667</ele><time>2026-04-25T12:23:01.199Z</time></trkpt><trkpt lat="43.7599497" lon="11.3290853"><ele>71.0</ele><time>2026-04-25T12:23:02.199Z</time></trkpt><trkpt lat="43.760071" lon="11.3292496"><ele>71.0</ele><time>2026-04-25T12:23:03.199Z</time></trkpt><trkpt lat="43.7601909" lon="11.32944"><ele>71.0</ele><time>2026-04-25T12:23:04.199Z</time></trkpt><trkpt lat="43.7603007" lon="11.3296336"><ele>71.0</ele><time>2026-04-25T12:23:05.199Z</time></trkpt><trkpt lat="43.7604009" lon="11.3298381"><ele>70.66666666666667</ele><time>2026-04-25T12:23:06.198Z</time></trkpt><trkpt lat="43.7604884" lon="11.3300562"><ele>70.33333333333333</ele><time>2026-04-25T12:23:07.199Z</time></trkpt><trkpt lat="43.7605703" lon="11.3302821"><ele>70.0</ele><time>2026-04-25T12:23:08.199Z</time></trkpt><trkpt lat="43.7606337" lon="11.3304959"><ele>70.33333333333333</ele><time>2026-04-25T12:23:09.199Z</time></trkpt><trkpt lat="43.7606912" lon="11.3307068"><ele>70.66666666666667</ele><time>2026-04-25T12:23:10.199Z</time></trkpt><trkpt lat="43.7607602" lon="11.3309285"><ele>71.0</ele><time>2026-04-25T12:23:11.199Z</time></trkpt><trkpt lat="43.7608251" lon="11.3311505"><ele>71.0</ele><time>2026-04-25T12:23:12.199Z</time></trkpt><trkpt lat="43.7608936" lon="11.3313671"><ele>71.0</ele><time>2026-04-25T12:23:13.199Z</time></trkpt><trkpt lat="43.7609583" lon="11.331582"><ele>71.0</ele><time>2026-04-25T12:23:14.198Z</time></trkpt><trkpt lat="43.7610244" lon="11.3317875"><ele>70.66666666666667</ele><time>2026-04-25T12:23:15.199Z</time></trkpt><trkpt lat="43.7610811" lon="11.3319971"><ele>70.33333333333333</ele><time>2026-04-25T12:23:16.199Z</time></trkpt><trkpt lat="43.7611325" lon="11.3321943"><ele>70.0</ele><time>2026-04-25T12:23:17.199Z</time></trkpt><trkpt lat="43.7611894" lon="11.3323919"><ele>70.0</ele><time>2026-04-25T12:23:18.199Z</time></trkpt><trkpt lat="43.7612456" lon="11.3325942"><ele>70.0</ele><time>2026-04-25T12:23:19.199Z</time></trkpt><trkpt lat="43.7612994" lon="11.3327802"><ele>70.0</ele><time>2026-04-25T12:23:20.199Z</time></trkpt><trkpt lat="43.7613552" lon="11.3329623"><ele>70.0</ele><time>2026-04-25T12:23:21.198Z</time></trkpt><trkpt lat="43.7614164" lon="11.333143"><ele>70.25</ele><time>2026-04-25T12:23:22.199Z</time></trkpt><trkpt lat="43.7614777" lon="11.3333178"><ele>70.5</ele><time>2026-04-25T12:23:23.199Z</time></trkpt><trkpt lat="43.7615404" lon="11.3334763"><ele>70.75</ele><time>2026-04-25T12:23:24.199Z</time></trkpt><trkpt lat="43.7616099" lon="11.3336271"><ele>71.0</ele><time>2026-04-25T12:23:25.198Z</time></trkpt><trkpt lat="43.7616842" lon="11.3337941"><ele>71.0</ele><time>2026-04-25T12:23:26.198Z</time></trkpt><trkpt lat="43.7617543" lon="11.3339129"><ele>71.0</ele><time>2026-04-25T12:23:27.198Z</time></trkpt><trkpt lat="43.7618366" lon="11.3340433"><ele>71.0</ele><time>2026-04-25T12:23:28.199Z</time></trkpt><trkpt lat="43.7619134" lon="11.3341852"><ele>71.0</ele><time>2026-04-25T12:23:29.198Z</time></trkpt><trkpt lat="43.7619803" lon="11.3342899"><ele>71.0</ele><time>2026-04-25T12:23:30.199Z</time></trkpt><trkpt lat="43.7620441" lon="11.3344104"><ele>71.0</ele><time>2026-04-25T12:23:31.199Z</time></trkpt><trkpt lat="43.7620984" lon="11.3344897"><ele>71.0</ele><time>2026-04-25T12:23:32.199Z</time></trkpt><trkpt lat="43.7621488" lon="11.334565"><ele>71.0</ele><time>2026-04-25T12:23:33.198Z</time></trkpt><trkpt lat="43.7622241" lon="11.3346751"><ele>71.0</ele><time>2026-04-25T12:23:35.199Z</time></trkpt><trkpt lat="43.7622686" lon="11.3347426"><ele>71.0</ele><time>2026-04-25T12:23:37.199Z</time></trkpt><trkpt lat="43.7623105" lon="11.3348115"><ele>71.33333333333334</ele><time>2026-04-25T12:23:39.199Z</time></trkpt><trkpt lat="43.7623544" lon="11.3348862"><ele>71.66666666666667</ele><time>2026-04-25T12:23:42.198Z</time></trkpt><trkpt lat="43.7624289" lon="11.3350056"><ele>72.0</ele><time>2026-04-25T12:23:55.199Z</time></trkpt><trkpt lat="43.7624493" lon="11.3351467"><ele>72.33333333333333</ele><time>2026-04-25T12:23:57.198Z</time></trkpt><trkpt lat="43.7624282" lon="11.3352379"><ele>72.66666666666666</ele><time>2026-04-25T12:23:59.199Z</time></trkpt><trkpt lat="43.7623635" lon="11.3353053"><ele>73.0</ele><time>2026-04-25T12:24:05.199Z</time></trkpt><trkpt lat="43.762306" lon="11.3354564"><ele>73.0</ele><time>2026-04-25T12:24:07.199Z</time></trkpt><trkpt lat="43.7623029" lon="11.3355441"><ele>73.0</ele><time>2026-04-25T12:24:08.199Z</time></trkpt><trkpt lat="43.7623206" lon="11.3356293"><ele>73.0</ele><time>2026-04-25T12:24:09.199Z</time></trkpt><trkpt lat="43.7623464" lon="11.3357169"><ele>73.0</ele><time>2026-04-25T12:24:10.199Z</time></trkpt><trkpt lat="43.7623641" lon="11.3358192"><ele>73.0</ele><time>2026-04-25T12:24:11.199Z</time></trkpt><trkpt lat="43.7623872" lon="11.3359371"><ele>73.0</ele><time>2026-04-25T12:24:12.199Z</time></trkpt><trkpt lat="43.7624324" lon="11.3360474"><ele>74.4</ele><time>2026-04-25T12:24:13.199Z</time></trkpt><trkpt lat="43.7624827" lon="11.3361616"><ele>75.8</ele><time>2026-04-25T12:24:14.199Z</time></trkpt><trkpt lat="43.7625288" lon="11.3362776"><ele>77.2</ele><time>2026-04-25T12:24:15.198Z</time></trkpt><trkpt lat="43.7625893" lon="11.3363755"><ele>78.6</ele><time>2026-04-25T12:24:16.198Z</time></trkpt><trkpt lat="43.7626476" lon="11.3364808"><ele>80.0</ele><time>2026-04-25T12:24:17.199Z</time></trkpt><trkpt lat="43.7626888" lon="11.3365902"><ele>79.0</ele><time>2026-04-25T12:24:18.198Z</time></trkpt><trkpt lat="43.7627481" lon="11.3366736"><ele>78.0</ele><time>2026-04-25T12:24:19.199Z</time></trkpt><trkpt lat="43.7627957" lon="11.3367595"><ele>77.0</ele><time>2026-04-25T12:24:20.199Z</time></trkpt><trkpt lat="43.7628392" lon="11.3368557"><ele>76.0</ele><time>2026-04-25T12:24:21.199Z</time></trkpt><trkpt lat="43.7628649" lon="11.3369596"><ele>75.0</ele><time>2026-04-25T12:24:22.199Z</time></trkpt><trkpt lat="43.7628919" lon="11.3370669"><ele>74.0</ele><time>2026-04-25T12:24:23.198Z</time></trkpt><trkpt lat="43.7629253" lon="11.337161"><ele>74.33333333333334</ele><time>2026-04-25T12:24:24.199Z</time></trkpt><trkpt lat="43.7629526" lon="11.3372567"><ele>74.66666666666667</ele><time>2026-04-25T12:24:25.198Z</time></trkpt><trkpt lat="43.7629796" lon="11.3373523"><ele>75.0</ele><time>2026-04-25T12:24:26.199Z</time></trkpt><trkpt lat="43.7630092" lon="11.3374487"><ele>75.33333333333333</ele><time>2026-04-25T12:24:27.198Z</time></trkpt><trkpt lat="43.7630417" lon="11.3375585"><ele>75.66666666666666</ele><time>2026-04-25T12:24:28.199Z</time></trkpt><trkpt lat="43.7630725" lon="11.3376744"><ele>76.0</ele><time>2026-04-25T12:24:29.199Z</time></trkpt><trkpt lat="43.763082" lon="11.3378445"><ele>76.0</ele><time>2026-04-25T12:24:30.199Z</time></trkpt><trkpt lat="43.7630922" lon="11.3379976"><ele>76.0</ele><time>2026-04-25T12:24:31.199Z</time></trkpt><trkpt lat="43.7631041" lon="11.3381566"><ele>76.0</ele><time>2026-04-25T12:24:32.198Z</time></trkpt><trkpt lat="43.7631199" lon="11.3383113"><ele>76.0</ele><time>2026-04-25T12:24:33.199Z</time></trkpt><trkpt lat="43.7631423" lon="11.338467"><ele>77.4</ele><time>2026-04-25T12:24:34.199Z</time></trkpt><trkpt lat="43.7631609" lon="11.3386196"><ele>78.8</ele><time>2026-04-25T12:24:35.199Z</time></trkpt><trkpt lat="43.7631824" lon="11.3387757"><ele>80.2</ele><time>2026-04-25T12:24:36.199Z</time></trkpt><trkpt lat="43.7632009" lon="11.3389291"><ele>81.60000000000001</ele><time>2026-04-25T12:24:37.199Z</time></trkpt><trkpt lat="43.7632198" lon="11.3390782"><ele>83.0</ele><time>2026-04-25T12:24:38.199Z</time></trkpt><trkpt lat="43.7632379" lon="11.3392166"><ele>85.0</ele><time>2026-04-25T12:24:39.199Z</time></trkpt><trkpt lat="43.7632517" lon="11.3393507"><ele>87.0</ele><time>2026-04-25T12:24:40.199Z</time></trkpt><trkpt lat="43.7632634" lon="11.3394762"><ele>89.0</ele><time>2026-04-25T12:24:41.199Z</time></trkpt><trkpt lat="43.7632697" lon="11.339602"><ele>91.0</ele><time>2026-04-25T12:24:42.199Z</time></trkpt><trkpt lat="43.7632731" lon="11.3397212"><ele>93.0</ele><time>2026-04-25T12:24:43.199Z</time></trkpt><trkpt lat="43.7632769" lon="11.339841"><ele>94.4</ele><time>2026-04-25T12:24:44.199Z</time></trkpt><trkpt lat="43.7632804" lon="11.3399597"><ele>95.80000000000001</ele><time>2026-04-25T12:24:45.199Z</time></trkpt><trkpt lat="43.763279" lon="11.3400879"><ele>97.2</ele><time>2026-04-25T12:24:46.199Z</time></trkpt><trkpt lat="43.7632609" lon="11.3402321"><ele>98.6</ele><time>2026-04-25T12:24:47.198Z</time></trkpt><trkpt lat="43.7632541" lon="11.3403816"><ele>100.0</ele><time>2026-04-25T12:24:48.199Z</time></trkpt><trkpt lat="43.7632472" lon="11.3405281"><ele>100.66666666666667</ele><time>2026-04-25T12:24:49.199Z</time></trkpt><trkpt lat="43.7632271" lon="11.3406571"><ele>101.33333333333334</ele><time>2026-04-25T12:24:50.199Z</time></trkpt><trkpt lat="43.7632202" lon="11.3407826"><ele>102.0</ele><time>2026-04-25T12:24:51.199Z</time></trkpt><trkpt lat="43.7632195" lon="11.3409041"><ele>102.66666666666666</ele><time>2026-04-25T12:24:52.199Z</time></trkpt><trkpt lat="43.763219" lon="11.3410193"><ele>103.33333333333333</ele><time>2026-04-25T12:24:53.199Z</time></trkpt><trkpt lat="43.7632116" lon="11.3411285"><ele>104.0</ele><time>2026-04-25T12:24:54.199Z</time></trkpt><trkpt lat="43.7631763" lon="11.3412529"><ele>105.49999999999999</ele><time>2026-04-25T12:24:55.198Z</time></trkpt><trkpt lat="43.7631412" lon="11.3413833"><ele>107.0</ele><time>2026-04-25T12:24:56.199Z</time></trkpt><trkpt lat="43.7631173" lon="11.3414863"><ele>108.5</ele><time>2026-04-25T12:24:57.199Z</time></trkpt><trkpt lat="43.7630992" lon="11.3415861"><ele>110.0</ele><time>2026-04-25T12:24:58.199Z</time></trkpt><trkpt lat="43.7630881" lon="11.3416926"><ele>111.49999999999999</ele><time>2026-04-25T12:24:59.199Z</time></trkpt><trkpt lat="43.7630883" lon="11.3418089"><ele>113.0</ele><time>2026-04-25T12:25:00.199Z</time></trkpt><trkpt lat="43.7630983" lon="11.3419299"><ele>113.0</ele><time>2026-04-25T12:25:01.198Z</time></trkpt><trkpt lat="43.7631574" lon="11.3420285"><ele>113.00000000000001</ele><time>2026-04-25T12:25:02.199Z</time></trkpt><trkpt lat="43.7631808" lon="11.3421555"><ele>113.00000000000001</ele><time>2026-04-25T12:25:03.198Z</time></trkpt><trkpt lat="43.7632349" lon="11.3422875"><ele>113.0</ele><time>2026-04-25T12:25:04.199Z</time></trkpt><trkpt lat="43.7632896" lon="11.3424103"><ele>113.0</ele><time>2026-04-25T12:25:05.199Z</time></trkpt><trkpt lat="43.7633591" lon="11.3425292"><ele>112.25</ele><time>2026-04-25T12:25:06.199Z</time></trkpt><trkpt lat="43.7634336" lon="11.3426435"><ele>111.5</ele><time>2026-04-25T12:25:07.199Z</time></trkpt><trkpt lat="43.7635228" lon="11.3427441"><ele>110.75</ele><time>2026-04-25T12:25:08.199Z</time></trkpt><trkpt lat="43.7636108" lon="11.3428518"><ele>110.0</ele><time>2026-04-25T12:25:09.199Z</time></trkpt><trkpt lat="43.7636937" lon="11.3429731"><ele>114.75</ele><time>2026-04-25T12:25:10.198Z</time></trkpt><trkpt lat="43.7637712" lon="11.343108"><ele>119.5</ele><time>2026-04-25T12:25:11.199Z</time></trkpt><trkpt lat="43.7638528" lon="11.3432347"><ele>124.25</ele><time>2026-04-25T12:25:12.199Z</time></trkpt><trkpt lat="43.7639372" lon="11.3433524"><ele>129.0</ele><time>2026-04-25T12:25:13.198Z</time></trkpt><trkpt lat="43.7640202" lon="11.343462"><ele>129.0</ele><time>2026-04-25T12:25:14.199Z</time></trkpt><trkpt lat="43.7641154" lon="11.3435308"><ele>129.0</ele><time>2026-04-25T12:25:15.199Z</time></trkpt><trkpt lat="43.76419" lon="11.3436119"><ele>129.0</ele><time>2026-04-25T12:25:16.198Z</time></trkpt><trkpt lat="43.764252" lon="11.3436974"><ele>129.0</ele><time>2026-04-25T12:25:17.199Z</time></trkpt><trkpt lat="43.7643092" lon="11.3437786"><ele>129.0</ele><time>2026-04-25T12:25:18.199Z</time></trkpt><trkpt lat="43.7643604" lon="11.3438568"><ele>129.0</ele><time>2026-04-25T12:25:19.198Z</time></trkpt><trkpt lat="43.7644072" lon="11.3439496"><ele>128.0</ele><time>2026-04-25T12:25:20.199Z</time></trkpt><trkpt lat="43.7644463" lon="11.3440362"><ele>127.0</ele><time>2026-04-25T12:25:21.199Z</time></trkpt><trkpt lat="43.7645061" lon="11.3442122"><ele>126.0</ele><time>2026-04-25T12:25:23.199Z</time></trkpt><trkpt lat="43.7645165" lon="11.3444182"><ele>125.0</ele><time>2026-04-25T12:25:24.199Z</time></trkpt><trkpt lat="43.7645314" lon="11.3445895"><ele>127.2</ele><time>2026-04-25T12:25:25.199Z</time></trkpt><trkpt lat="43.7645671" lon="11.3447307"><ele>129.4</ele><time>2026-04-25T12:25:26.199Z</time></trkpt><trkpt lat="43.7646088" lon="11.3448794"><ele>131.6</ele><time>2026-04-25T12:25:27.199Z</time></trkpt><trkpt lat="43.7646777" lon="11.3449815"><ele>133.8</ele><time>2026-04-25T12:25:28.199Z</time></trkpt><trkpt lat="43.7647382" lon="11.3451062"><ele>136.0</ele><time>2026-04-25T12:25:29.198Z</time></trkpt><trkpt lat="43.7648165" lon="11.345155"><ele>136.0</ele><time>2026-04-25T12:25:30.199Z</time></trkpt><trkpt lat="43.7648825" lon="11.3452383"><ele>136.0</ele><time>2026-04-25T12:25:31.199Z</time></trkpt><trkpt lat="43.7649316" lon="11.3453165"><ele>136.0</ele><time>2026-04-25T12:25:32.199Z</time></trkpt><trkpt lat="43.764971" lon="11.3454346"><ele>136.0</ele><time>2026-04-25T12:25:33.199Z</time></trkpt><trkpt lat="43.7649997" lon="11.3456271"><ele>136.0</ele><time>2026-04-25T12:25:34.199Z</time></trkpt><trkpt lat="43.7650189" lon="11.3457956"><ele>138.4</ele><time>2026-04-25T12:25:35.198Z</time></trkpt><trkpt lat="43.7650029" lon="11.3459568"><ele>140.8</ele><time>2026-04-25T12:25:36.199Z</time></trkpt><trkpt lat="43.7650211" lon="11.3460814"><ele>143.20000000000002</ele><time>2026-04-25T12:25:37.199Z</time></trkpt><trkpt lat="43.7650169" lon="11.3462353"><ele>145.6</ele><time>2026-04-25T12:25:38.199Z</time></trkpt><trkpt lat="43.7650444" lon="11.3463742"><ele>148.0</ele><time>2026-04-25T12:25:39.199Z</time></trkpt><trkpt lat="43.7650775" lon="11.3465007"><ele>151.5</ele><time>2026-04-25T12:25:40.198Z</time></trkpt><trkpt lat="43.765111" lon="11.3466534"><ele>155.0</ele><time>2026-04-25T12:25:41.199Z</time></trkpt><trkpt lat="43.7651331" lon="11.3468009"><ele>158.5</ele><time>2026-04-25T12:25:42.199Z</time></trkpt><trkpt lat="43.7651591" lon="11.3469561"><ele>162.0</ele><time>2026-04-25T12:25:43.199Z</time></trkpt><trkpt lat="43.7651751" lon="11.3471126"><ele>164.0</ele><time>2026-04-25T12:25:44.199Z</time></trkpt><trkpt lat="43.7651896" lon="11.3472754"><ele>166.0</ele><time>2026-04-25T12:25:45.199Z</time></trkpt><trkpt lat="43.7651973" lon="11.3474416"><ele>168.0</ele><time>2026-04-25T12:25:46.199Z</time></trkpt><trkpt lat="43.7652056" lon="11.3475959"><ele>170.0</ele><time>2026-04-25T12:25:47.198Z</time></trkpt><trkpt lat="43.7652105" lon="11.347773"><ele>163.0</ele><time>2026-04-25T12:25:48.199Z</time></trkpt><trkpt lat="43.7652109" lon="11.3479534"><ele>156.0</ele><time>2026-04-25T12:25:49.198Z</time></trkpt><trkpt lat="43.7652287" lon="11.3481145"><ele>149.0</ele><time>2026-04-25T12:25:50.199Z</time></trkpt><trkpt lat="43.7652523" lon="11.3482746"><ele>142.0</ele><time>2026-04-25T12:25:51.199Z</time></trkpt><trkpt lat="43.7652758" lon="11.3484355"><ele>142.0</ele><time>2026-04-25T12:25:52.199Z</time></trkpt><trkpt lat="43.7652907" lon="11.3485987"><ele>142.0</ele><time>2026-04-25T12:25:53.199Z</time></trkpt><trkpt lat="43.7653302" lon="11.3487373"><ele>142.0</ele><time>2026-04-25T12:25:54.198Z</time></trkpt><trkpt lat="43.7653683" lon="11.3488747"><ele>142.0</ele><time>2026-04-25T12:25:55.199Z</time></trkpt><trkpt lat="43.7654241" lon="11.3489994"><ele>142.0</ele><time>2026-04-25T12:25:56.199Z</time></trkpt><trkpt lat="43.765488" lon="11.3491333"><ele>143.79999999999998</ele><time>2026-04-25T12:25:57.199Z</time></trkpt><trkpt lat="43.7655643" lon="11.3492392"><ele>145.6</ele><time>2026-04-25T12:25:58.199Z</time></trkpt><trkpt lat="43.7656532" lon="11.3493228"><ele>147.39999999999998</ele><time>2026-04-25T12:25:59.199Z</time></trkpt><trkpt lat="43.7657355" lon="11.3494042"><ele>149.2</ele><time>2026-04-25T12:26:00.199Z</time></trkpt><trkpt lat="43.7658259" lon="11.3494484"><ele>151.0</ele><time>2026-04-25T12:26:01.199Z</time></trkpt><trkpt lat="43.7659178" lon="11.3494967"><ele>151.0</ele><time>2026-04-25T12:26:02.199Z</time></trkpt><trkpt lat="43.7660072" lon="11.3495471"><ele>151.0</ele><time>2026-04-25T12:26:03.199Z</time></trkpt><trkpt lat="43.7660901" lon="11.3495938"><ele>151.0</ele><time>2026-04-25T12:26:04.199Z</time></trkpt><trkpt lat="43.7661475" lon="11.3496425"><ele>151.0</ele><time>2026-04-25T12:26:05.199Z</time></trkpt><trkpt lat="43.7662024" lon="11.3497214"><ele>151.0</ele><time>2026-04-25T12:26:06.199Z</time></trkpt><trkpt lat="43.7662365" lon="11.3498111"><ele>151.0</ele><time>2026-04-25T12:26:07.199Z</time></trkpt><trkpt lat="43.766262" lon="11.3499166"><ele>149.8</ele><time>2026-04-25T12:26:08.199Z</time></trkpt><trkpt lat="43.7662829" lon="11.3500328"><ele>148.6</ele><time>2026-04-25T12:26:09.198Z</time></trkpt><trkpt lat="43.7663077" lon="11.3501431"><ele>147.4</ele><time>2026-04-25T12:26:10.199Z</time></trkpt><trkpt lat="43.7663493" lon="11.3502441"><ele>146.2</ele><time>2026-04-25T12:26:11.199Z</time></trkpt><trkpt lat="43.7663895" lon="11.3503545"><ele>145.0</ele><time>2026-04-25T12:26:12.199Z</time></trkpt><trkpt lat="43.7663997" lon="11.3505045"><ele>146.6</ele><time>2026-04-25T12:26:13.199Z</time></trkpt><trkpt lat="43.7664198" lon="11.3506511"><ele>148.2</ele><time>2026-04-25T12:26:14.199Z</time></trkpt><trkpt lat="43.7664483" lon="11.3507912"><ele>149.8</ele><time>2026-04-25T12:26:15.199Z</time></trkpt><trkpt lat="43.7664773" lon="11.3509201"><ele>151.4</ele><time>2026-04-25T12:26:16.199Z</time></trkpt><trkpt lat="43.7665073" lon="11.3510467"><ele>153.0</ele><time>2026-04-25T12:26:17.199Z</time></trkpt><trkpt lat="43.7665495" lon="11.3511499"><ele>153.0</ele><time>2026-04-25T12:26:18.199Z</time></trkpt><trkpt lat="43.7665492" lon="11.3512809"><ele>153.0</ele><time>2026-04-25T12:26:19.199Z</time></trkpt><trkpt lat="43.7665775" lon="11.3514076"><ele>153.0</ele><time>2026-04-25T12:26:20.198Z</time></trkpt><trkpt lat="43.7666061" lon="11.3515454"><ele>153.0</ele><time>2026-04-25T12:26:21.199Z</time></trkpt><trkpt lat="43.7666355" lon="11.3516941"><ele>153.0</ele><time>2026-04-25T12:26:22.199Z</time></trkpt><trkpt lat="43.7666579" lon="11.3518391"><ele>154.25</ele><time>2026-04-25T12:26:23.198Z</time></trkpt><trkpt lat="43.7666723" lon="11.3519896"><ele>155.5</ele><time>2026-04-25T12:26:24.198Z</time></trkpt><trkpt lat="43.7666874" lon="11.3521532"><ele>156.75</ele><time>2026-04-25T12:26:25.199Z</time></trkpt><trkpt lat="43.7667068" lon="11.3523184"><ele>158.0</ele><time>2026-04-25T12:26:26.199Z</time></trkpt><trkpt lat="43.7667277" lon="11.3524722"><ele>158.20000000000002</ele><time>2026-04-25T12:26:27.199Z</time></trkpt><trkpt lat="43.7667449" lon="11.3526207"><ele>158.4</ele><time>2026-04-25T12:26:28.199Z</time></trkpt><trkpt lat="43.7667529" lon="11.3527569"><ele>158.60000000000002</ele><time>2026-04-25T12:26:29.198Z</time></trkpt><trkpt lat="43.7667798" lon="11.3528704"><ele>158.8</ele><time>2026-04-25T12:26:30.199Z</time></trkpt><trkpt lat="43.7667928" lon="11.3530038"><ele>159.0</ele><time>2026-04-25T12:26:31.198Z</time></trkpt><trkpt lat="43.7668098" lon="11.3531379"><ele>159.0</ele><time>2026-04-25T12:26:32.199Z</time></trkpt><trkpt lat="43.7668225" lon="11.3532798"><ele>159.0</ele><time>2026-04-25T12:26:33.199Z</time></trkpt><trkpt lat="43.766827" lon="11.3534284"><ele>159.0</ele><time>2026-04-25T12:26:34.199Z</time></trkpt><trkpt lat="43.7668135" lon="11.3535801"><ele>159.0</ele><time>2026-04-25T12:26:35.198Z</time></trkpt><trkpt lat="43.7667862" lon="11.3537524"><ele>159.0</ele><time>2026-04-25T12:26:36.198Z</time></trkpt><trkpt lat="43.7667466" lon="11.3539288"><ele>158.0</ele><time>2026-04-25T12:26:37.199Z</time></trkpt><trkpt lat="43.7667026" lon="11.3541134"><ele>157.0</ele><time>2026-04-25T12:26:38.199Z</time></trkpt><trkpt lat="43.7666515" lon="11.3543032"><ele>156.0</ele><time>2026-04-25T12:26:39.199Z</time></trkpt><trkpt lat="43.7665943" lon="11.3544917"><ele>155.0</ele><time>2026-04-25T12:26:40.199Z</time></trkpt><trkpt lat="43.766541" lon="11.3546813"><ele>154.5</ele><time>2026-04-25T12:26:41.199Z</time></trkpt><trkpt lat="43.7664859" lon="11.3548664"><ele>154.0</ele><time>2026-04-25T12:26:42.198Z</time></trkpt><trkpt lat="43.7664311" lon="11.3550547"><ele>153.5</ele><time>2026-04-25T12:26:43.199Z</time></trkpt><trkpt lat="43.7663768" lon="11.3552337"><ele>153.0</ele><time>2026-04-25T12:26:44.198Z</time></trkpt><trkpt lat="43.7663222" lon="11.355412"><ele>152.25</ele><time>2026-04-25T12:26:45.199Z</time></trkpt><trkpt lat="43.7662686" lon="11.3555898"><ele>151.5</ele><time>2026-04-25T12:26:46.199Z</time></trkpt><trkpt lat="43.7662208" lon="11.3557529"><ele>150.75</ele><time>2026-04-25T12:26:47.199Z</time></trkpt><trkpt lat="43.766167" lon="11.355897"><ele>150.0</ele><time>2026-04-25T12:26:48.199Z</time></trkpt><trkpt lat="43.7661403" lon="11.3560064"><ele>150.0</ele><time>2026-04-25T12:26:49.198Z</time></trkpt><trkpt lat="43.7661047" lon="11.3561187"><ele>150.0</ele><time>2026-04-25T12:26:50.199Z</time></trkpt><trkpt lat="43.7660653" lon="11.3561939"><ele>150.0</ele><time>2026-04-25T12:26:51.199Z</time></trkpt><trkpt lat="43.7660101" lon="11.3562783"><ele>150.0</ele><time>2026-04-25T12:26:52.199Z</time></trkpt><trkpt lat="43.765945" lon="11.3563732"><ele>150.0</ele><time>2026-04-25T12:26:53.199Z</time></trkpt><trkpt lat="43.765879" lon="11.3564828"><ele>150.0</ele><time>2026-04-25T12:26:54.199Z</time></trkpt><trkpt lat="43.7658046" lon="11.3566021"><ele>154.25</ele><time>2026-04-25T12:26:55.199Z</time></trkpt><trkpt lat="43.7657228" lon="11.3567295"><ele>158.5</ele><time>2026-04-25T12:26:56.199Z</time></trkpt><trkpt lat="43.765648" lon="11.3568573"><ele>162.75</ele><time>2026-04-25T12:26:57.198Z</time></trkpt><trkpt lat="43.7655664" lon="11.3569976"><ele>167.0</ele><time>2026-04-25T12:26:58.199Z</time></trkpt><trkpt lat="43.7654908" lon="11.3571158"><ele>167.0</ele><time>2026-04-25T12:26:59.199Z</time></trkpt><trkpt lat="43.7654099" lon="11.35722"><ele>167.0</ele><time>2026-04-25T12:27:00.198Z</time></trkpt><trkpt lat="43.7653328" lon="11.3573148"><ele>167.0</ele><time>2026-04-25T12:27:01.199Z</time></trkpt><trkpt lat="43.7652681" lon="11.3573877"><ele>167.0</ele><time>2026-04-25T12:27:02.199Z</time></trkpt><trkpt lat="43.7652084" lon="11.3574753"><ele>167.0</ele><time>2026-04-25T12:27:03.199Z</time></trkpt><trkpt lat="43.7651601" lon="11.3575739"><ele>166.33333333333331</ele><time>2026-04-25T12:27:04.199Z</time></trkpt><trkpt lat="43.7651265" lon="11.3576773"><ele>165.66666666666666</ele><time>2026-04-25T12:27:05.198Z</time></trkpt><trkpt lat="43.7651236" lon="11.3577926"><ele>165.0</ele><time>2026-04-25T12:27:06.199Z</time></trkpt><trkpt lat="43.7651444" lon="11.3579028"><ele>164.33333333333334</ele><time>2026-04-25T12:27:07.199Z</time></trkpt><trkpt lat="43.7651858" lon="11.3580085"><ele>163.66666666666669</ele><time>2026-04-25T12:27:08.198Z</time></trkpt><trkpt lat="43.7652315" lon="11.3581189"><ele>163.0</ele><time>2026-04-25T12:27:09.199Z</time></trkpt><trkpt lat="43.7652771" lon="11.3582432"><ele>163.0</ele><time>2026-04-25T12:27:10.199Z</time></trkpt><trkpt lat="43.7653216" lon="11.3583676"><ele>163.0</ele><time>2026-04-25T12:27:11.199Z</time></trkpt><trkpt lat="43.7653679" lon="11.3584891"><ele>163.0</ele><time>2026-04-25T12:27:12.199Z</time></trkpt><trkpt lat="43.7654207" lon="11.3585982"><ele>163.0</ele><time>2026-04-25T12:27:13.199Z</time></trkpt><trkpt lat="43.7654616" lon="11.3587012"><ele>163.0</ele><time>2026-04-25T12:27:14.199Z</time></trkpt><trkpt lat="43.7654989" lon="11.3587961"><ele>164.83333333333334</ele><time>2026-04-25T12:27:15.199Z</time></trkpt><trkpt lat="43.7655382" lon="11.3588971"><ele>166.66666666666669</ele><time>2026-04-25T12:27:16.198Z</time></trkpt><trkpt lat="43.7655794" lon="11.358997"><ele>168.5</ele><time>2026-04-25T12:27:17.199Z</time></trkpt><trkpt lat="43.7656194" lon="11.3591043"><ele>170.33333333333334</ele><time>2026-04-25T12:27:18.199Z</time></trkpt><trkpt lat="43.7656613" lon="11.3592049"><ele>172.16666666666666</ele><time>2026-04-25T12:27:19.199Z</time></trkpt><trkpt lat="43.765703" lon="11.3593039"><ele>174.0</ele><time>2026-04-25T12:27:20.199Z</time></trkpt><trkpt lat="43.7657482" lon="11.3593956"><ele>174.0</ele><time>2026-04-25T12:27:21.199Z</time></trkpt><trkpt lat="43.7657911" lon="11.3594931"><ele>174.0</ele><time>2026-04-25T12:27:22.199Z</time></trkpt><trkpt lat="43.7658347" lon="11.3595884"><ele>174.0</ele><time>2026-04-25T12:27:23.199Z</time></trkpt><trkpt lat="43.7658749" lon="11.3596834"><ele>174.0</ele><time>2026-04-25T12:27:24.198Z</time></trkpt><trkpt lat="43.7659229" lon="11.3597638"><ele>174.0</ele><time>2026-04-25T12:27:25.199Z</time></trkpt><trkpt lat="43.7659428" lon="11.3598788"><ele>174.0</ele><time>2026-04-25T12:27:26.199Z</time></trkpt><trkpt lat="43.7659632" lon="11.3599922"><ele>174.16666666666666</ele><time>2026-04-25T12:27:27.199Z</time></trkpt><trkpt lat="43.7659872" lon="11.3600953"><ele>174.33333333333334</ele><time>2026-04-25T12:27:28.199Z</time></trkpt><trkpt lat="43.76601" lon="11.3601992"><ele>174.5</ele><time>2026-04-25T12:27:29.198Z</time></trkpt><trkpt lat="43.7660317" lon="11.3602982"><ele>174.66666666666669</ele><time>2026-04-25T12:27:30.199Z</time></trkpt><trkpt lat="43.766062" lon="11.360386"><ele>174.83333333333334</ele><time>2026-04-25T12:27:31.198Z</time></trkpt><trkpt lat="43.7660844" lon="11.360473"><ele>175.0</ele><time>2026-04-25T12:27:32.199Z</time></trkpt><trkpt lat="43.7660888" lon="11.360604"><ele>177.4</ele><time>2026-04-25T12:27:33.199Z</time></trkpt><trkpt lat="43.7660951" lon="11.3607092"><ele>179.8</ele><time>2026-04-25T12:27:34.199Z</time></trkpt><trkpt lat="43.7661178" lon="11.3608872"><ele>182.2</ele><time>2026-04-25T12:27:36.199Z</time></trkpt><trkpt lat="43.7661396" lon="11.3610461"><ele>184.6</ele><time>2026-04-25T12:27:38.199Z</time></trkpt><trkpt lat="43.7661287" lon="11.361148"><ele>187.0</ele><time>2026-04-25T12:27:39.199Z</time></trkpt><trkpt lat="43.7661189" lon="11.361242"><ele>187.0</ele><time>2026-04-25T12:27:40.199Z</time></trkpt><trkpt lat="43.7661118" lon="11.3613389"><ele>187.0</ele><time>2026-04-25T12:27:41.198Z</time></trkpt><trkpt lat="43.7660958" lon="11.3614504"><ele>187.0</ele><time>2026-04-25T12:27:42.199Z</time></trkpt><trkpt lat="43.7660605" lon="11.3616148"><ele>187.0</ele><time>2026-04-25T12:27:44.199Z</time></trkpt><trkpt lat="43.7660286" lon="11.3617055"><ele>187.0</ele><time>2026-04-25T12:27:45.199Z</time></trkpt><trkpt lat="43.7659943" lon="11.3618049"><ele>187.0</ele><time>2026-04-25T12:27:46.199Z</time></trkpt><trkpt lat="43.765953" lon="11.3618963"><ele>190.5</ele><time>2026-04-25T12:27:47.198Z</time></trkpt><trkpt lat="43.7659286" lon="11.3619935"><ele>194.0</ele><time>2026-04-25T12:27:48.199Z</time></trkpt><trkpt lat="43.7658752" lon="11.3621168"><ele>197.5</ele><time>2026-04-25T12:27:49.199Z</time></trkpt><trkpt lat="43.7658504" lon="11.362221"><ele>201.0</ele><time>2026-04-25T12:27:50.199Z</time></trkpt><trkpt lat="43.7658366" lon="11.362324"><ele>204.49999999999997</ele><time>2026-04-25T12:27:51.199Z</time></trkpt><trkpt lat="43.7658189" lon="11.3624217"><ele>208.0</ele><time>2026-04-25T12:27:52.198Z</time></trkpt><trkpt lat="43.7657961" lon="11.3625137"><ele>208.4</ele><time>2026-04-25T12:27:53.199Z</time></trkpt><trkpt lat="43.7657547" lon="11.362588"><ele>208.8</ele><time>2026-04-25T12:27:54.199Z</time></trkpt><trkpt lat="43.7656768" lon="11.3627306"><ele>209.2</ele><time>2026-04-25T12:27:56.198Z</time></trkpt><trkpt lat="43.7656141" lon="11.3628438"><ele>209.6</ele><time>2026-04-25T12:27:58.198Z</time></trkpt><trkpt lat="43.7655842" lon="11.3629336"><ele>210.0</ele><time>2026-04-25T12:27:59.199Z</time></trkpt><trkpt lat="43.7656167" lon="11.363081"><ele>211.6</ele><time>2026-04-25T12:28:01.199Z</time></trkpt><trkpt lat="43.7656233" lon="11.3632065"><ele>213.2</ele><time>2026-04-25T12:28:03.198Z</time></trkpt><trkpt lat="43.765758" lon="11.3631582"><ele>214.8</ele><time>2026-04-25T12:28:06.199Z</time></trkpt><trkpt lat="43.7658452" lon="11.3631544"><ele>216.4</ele><time>2026-04-25T12:28:07.199Z</time></trkpt><trkpt lat="43.7659226" lon="11.3631556"><ele>218.0</ele><time>2026-04-25T12:28:08.199Z</time></trkpt><trkpt lat="43.7660316" lon="11.3631674"><ele>218.00000000000003</ele><time>2026-04-25T12:28:09.199Z</time></trkpt><trkpt lat="43.7661202" lon="11.3631781"><ele>218.0</ele><time>2026-04-25T12:28:10.199Z</time></trkpt><trkpt lat="43.7662173" lon="11.363194"><ele>218.0</ele><time>2026-04-25T12:28:11.199Z</time></trkpt><trkpt lat="43.7663035" lon="11.3632121"><ele>218.0</ele><time>2026-04-25T12:28:12.198Z</time></trkpt><trkpt lat="43.7663876" lon="11.3632078"><ele>218.00000000000003</ele><time>2026-04-25T12:28:13.199Z</time></trkpt><trkpt lat="43.7664681" lon="11.3632205"><ele>218.0</ele><time>2026-04-25T12:28:14.198Z</time></trkpt><trkpt lat="43.766541" lon="11.3632334"><ele>218.0</ele><time>2026-04-25T12:28:15.198Z</time></trkpt><trkpt lat="43.7666127" lon="11.363262"><ele>218.0</ele><time>2026-04-25T12:28:16.199Z</time></trkpt><trkpt lat="43.7666884" lon="11.3633839"><ele>218.0</ele><time>2026-04-25T12:28:18.199Z</time></trkpt><trkpt lat="43.7667303" lon="11.3635294"><ele>218.0</ele><time>2026-04-25T12:28:20.199Z</time></trkpt><trkpt lat="43.7667576" lon="11.3636944"><ele>218.0</ele><time>2026-04-25T12:28:22.199Z</time></trkpt><trkpt lat="43.766763" lon="11.363874"><ele>220.50000000000003</ele><time>2026-04-25T12:28:24.199Z</time></trkpt><trkpt lat="43.7667616" lon="11.363962"><ele>223.0</ele><time>2026-04-25T12:28:25.199Z</time></trkpt><trkpt lat="43.7667458" lon="11.3640803"><ele>225.5</ele><time>2026-04-25T12:28:26.199Z</time></trkpt><trkpt lat="43.7667286" lon="11.3641818"><ele>228.0</ele><time>2026-04-25T12:28:27.199Z</time></trkpt><trkpt lat="43.7667278" lon="11.3642941"><ele>230.50000000000003</ele><time>2026-04-25T12:28:28.199Z</time></trkpt><trkpt lat="43.7667124" lon="11.3644047"><ele>233.0</ele><time>2026-04-25T12:28:29.199Z</time></trkpt><trkpt lat="43.7666982" lon="11.3645172"><ele>233.00000000000003</ele><time>2026-04-25T12:28:30.199Z</time></trkpt><trkpt lat="43.7666866" lon="11.3646411"><ele>233.0</ele><time>2026-04-25T12:28:31.198Z</time></trkpt><trkpt lat="43.766667" lon="11.3647764"><ele>233.0</ele><time>2026-04-25T12:28:32.199Z</time></trkpt><trkpt lat="43.7666581" lon="11.3649005"><ele>233.0</ele><time>2026-04-25T12:28:33.199Z</time></trkpt><trkpt lat="43.7666567" lon="11.3649987"><ele>233.00000000000003</ele><time>2026-04-25T12:28:34.199Z</time></trkpt><trkpt lat="43.7666497" lon="11.3651071"><ele>233.0</ele><time>2026-04-25T12:28:35.199Z</time></trkpt><trkpt lat="43.7666326" lon="11.3651914"><ele>234.00000000000003</ele><time>2026-04-25T12:28:36.198Z</time></trkpt><trkpt lat="43.7666172" lon="11.3653136"><ele>235.0</ele><time>2026-04-25T12:28:37.199Z</time></trkpt><trkpt lat="43.7666011" lon="11.3654106"><ele>236.0</ele><time>2026-04-25T12:28:38.199Z</time></trkpt><trkpt lat="43.7665752" lon="11.3655039"><ele>237.0</ele><time>2026-04-25T12:28:39.199Z</time></trkpt><trkpt lat="43.7665424" lon="11.3655969"><ele>238.00000000000003</ele><time>2026-04-25T12:28:40.199Z</time></trkpt><trkpt lat="43.7665304" lon="11.3656961"><ele>239.0</ele><time>2026-04-25T12:28:41.199Z</time></trkpt><trkpt lat="43.766494" lon="11.3657969"><ele>239.00000000000003</ele><time>2026-04-25T12:28:42.199Z</time></trkpt><trkpt lat="43.7664502" lon="11.3658806"><ele>239.0</ele><time>2026-04-25T12:28:43.199Z</time></trkpt><trkpt lat="43.7664007" lon="11.3660129"><ele>239.0</ele><time>2026-04-25T12:28:44.199Z</time></trkpt><trkpt lat="43.7663627" lon="11.366113"><ele>239.0</ele><time>2026-04-25T12:28:45.199Z</time></trkpt><trkpt lat="43.7663411" lon="11.36621"><ele>239.00000000000003</ele><time>2026-04-25T12:28:46.199Z</time></trkpt><trkpt lat="43.766318" lon="11.3663194"><ele>239.0</ele><time>2026-04-25T12:28:47.199Z</time></trkpt><trkpt lat="43.7662816" lon="11.3664304"><ele>237.50000000000003</ele><time>2026-04-25T12:28:48.199Z</time></trkpt><trkpt lat="43.7662324" lon="11.3665189"><ele>236.0</ele><time>2026-04-25T12:28:49.199Z</time></trkpt><trkpt lat="43.7661931" lon="11.3666086"><ele>234.5</ele><time>2026-04-25T12:28:50.199Z</time></trkpt><trkpt lat="43.7661493" lon="11.3667318"><ele>233.0</ele><time>2026-04-25T12:28:51.199Z</time></trkpt><trkpt lat="43.7661007" lon="11.3668269"><ele>231.50000000000003</ele><time>2026-04-25T12:28:52.199Z</time></trkpt><trkpt lat="43.766054" lon="11.3669271"><ele>230.0</ele><time>2026-04-25T12:28:53.199Z</time></trkpt><trkpt lat="43.7660107" lon="11.3670308"><ele>235.33333333333334</ele><time>2026-04-25T12:28:54.199Z</time></trkpt><trkpt lat="43.7659733" lon="11.3671277"><ele>240.66666666666669</ele><time>2026-04-25T12:28:55.199Z</time></trkpt><trkpt lat="43.7659446" lon="11.367224"><ele>246.0</ele><time>2026-04-25T12:28:56.199Z</time></trkpt><trkpt lat="43.7659118" lon="11.3673137"><ele>251.33333333333331</ele><time>2026-04-25T12:28:57.198Z</time></trkpt><trkpt lat="43.765876" lon="11.367413"><ele>256.66666666666663</ele><time>2026-04-25T12:28:58.199Z</time></trkpt><trkpt lat="43.7658182" lon="11.3675347"><ele>262.0</ele><time>2026-04-25T12:28:59.199Z</time></trkpt><trkpt lat="43.765779" lon="11.3676565"><ele>262.0</ele><time>2026-04-25T12:29:00.199Z</time></trkpt><trkpt lat="43.7657283" lon="11.3677813"><ele>262.0</ele><time>2026-04-25T12:29:01.198Z</time></trkpt><trkpt lat="43.7656804" lon="11.3678764"><ele>262.0</ele><time>2026-04-25T12:29:02.198Z</time></trkpt><trkpt lat="43.7656444" lon="11.3679496"><ele>262.0</ele><time>2026-04-25T12:29:03.199Z</time></trkpt><trkpt lat="43.7656018" lon="11.3680272"><ele>262.0</ele><time>2026-04-25T12:29:04.199Z</time></trkpt><trkpt lat="43.7655315" lon="11.3681359"><ele>262.0</ele><time>2026-04-25T12:29:06.199Z</time></trkpt><trkpt lat="43.765482" lon="11.3682719"><ele>261.4</ele><time>2026-04-25T12:29:08.199Z</time></trkpt><trkpt lat="43.7655195" lon="11.3684433"><ele>260.79999999999995</ele><time>2026-04-25T12:29:10.199Z</time></trkpt><trkpt lat="43.7655297" lon="11.3686073"><ele>260.2</ele><time>2026-04-25T12:29:11.199Z</time></trkpt><trkpt lat="43.7655512" lon="11.3687427"><ele>259.59999999999997</ele><time>2026-04-25T12:29:12.199Z</time></trkpt><trkpt lat="43.7655702" lon="11.3688799"><ele>259.0</ele><time>2026-04-25T12:29:13.199Z</time></trkpt><trkpt lat="43.765588" lon="11.3690085"><ele>259.0</ele><time>2026-04-25T12:29:14.199Z</time></trkpt><trkpt lat="43.7655939" lon="11.3691291"><ele>259.0</ele><time>2026-04-25T12:29:15.199Z</time></trkpt><trkpt lat="43.7655859" lon="11.3692519"><ele>259.0</ele><time>2026-04-25T12:29:16.199Z</time></trkpt><trkpt lat="43.765558" lon="11.369396"><ele>259.0</ele><time>2026-04-25T12:29:17.198Z</time></trkpt><trkpt lat="43.7655518" lon="11.3695661"><ele>259.0</ele><time>2026-04-25T12:29:18.199Z</time></trkpt><trkpt lat="43.7655306" lon="11.3697002"><ele>259.3333333333333</ele><time>2026-04-25T12:29:19.199Z</time></trkpt><trkpt lat="43.7655187" lon="11.369827"><ele>259.66666666666663</ele><time>2026-04-25T12:29:20.199Z</time></trkpt><trkpt lat="43.7655034" lon="11.369953"><ele>260.0</ele><time>2026-04-25T12:29:21.199Z</time></trkpt><trkpt lat="43.7654981" lon="11.3700579"><ele>260.3333333333333</ele><time>2026-04-25T12:29:22.199Z</time></trkpt><trkpt lat="43.7654656" lon="11.3701771"><ele>260.6666666666667</ele><time>2026-04-25T12:29:23.198Z</time></trkpt><trkpt lat="43.7654257" lon="11.3702797"><ele>261.0</ele><time>2026-04-25T12:29:24.199Z</time></trkpt><trkpt lat="43.76536" lon="11.3704601"><ele>260.3333333333333</ele><time>2026-04-25T12:29:26.199Z</time></trkpt><trkpt lat="43.7653032" lon="11.3705618"><ele>259.6666666666667</ele><time>2026-04-25T12:29:27.199Z</time></trkpt><trkpt lat="43.7652401" lon="11.3706058"><ele>259.0</ele><time>2026-04-25T12:29:28.199Z</time></trkpt><trkpt lat="43.7651835" lon="11.3706749"><ele>258.33333333333337</ele><time>2026-04-25T12:29:29.199Z</time></trkpt><trkpt lat="43.7651159" lon="11.370808"><ele>257.6666666666667</ele><time>2026-04-25T12:29:31.198Z</time></trkpt><trkpt lat="43.7650694" lon="11.3708956"><ele>257.0</ele><time>2026-04-25T12:29:32.199Z</time></trkpt><trkpt lat="43.7650272" lon="11.3709779"><ele>262.0</ele><time>2026-04-25T12:29:33.199Z</time></trkpt><trkpt lat="43.7649946" lon="11.3710538"><ele>267.0</ele><time>2026-04-25T12:29:34.198Z</time></trkpt><trkpt lat="43.7649173" lon="11.3712542"><ele>272.0</ele><time>2026-04-25T12:29:35.199Z</time></trkpt><trkpt lat="43.7648841" lon="11.3713891"><ele>277.0</ele><time>2026-04-25T12:29:36.199Z</time></trkpt><trkpt lat="43.7649023" lon="11.3715196"><ele>282.0</ele><time>2026-04-25T12:29:37.198Z</time></trkpt><trkpt lat="43.7649182" lon="11.3716472"><ele>282.4</ele><time>2026-04-25T12:29:38.199Z</time></trkpt><trkpt lat="43.7650233" lon="11.3717584"><ele>282.79999999999995</ele><time>2026-04-25T12:29:39.199Z</time></trkpt><trkpt lat="43.7650804" lon="11.371863"><ele>283.2</ele><time>2026-04-25T12:29:40.199Z</time></trkpt><trkpt lat="43.7651644" lon="11.371935"><ele>283.59999999999997</ele><time>2026-04-25T12:29:41.199Z</time></trkpt><trkpt lat="43.7652756" lon="11.3720025"><ele>284.0</ele><time>2026-04-25T12:29:42.199Z</time></trkpt><trkpt lat="43.7653841" lon="11.3720764"><ele>280.4</ele><time>2026-04-25T12:29:43.198Z</time></trkpt><trkpt lat="43.7654734" lon="11.3721623"><ele>276.79999999999995</ele><time>2026-04-25T12:29:44.199Z</time></trkpt><trkpt lat="43.7655419" lon="11.3722561"><ele>273.20000000000005</ele><time>2026-04-25T12:29:45.199Z</time></trkpt><trkpt lat="43.7655964" lon="11.372356"><ele>269.6</ele><time>2026-04-25T12:29:46.198Z</time></trkpt><trkpt lat="43.7656375" lon="11.3724635"><ele>266.0</ele><time>2026-04-25T12:29:47.198Z</time></trkpt><trkpt lat="43.7656368" lon="11.3726386"><ele>266.0</ele><time>2026-04-25T12:29:48.199Z</time></trkpt><trkpt lat="43.7656125" lon="11.3727669"><ele>266.0</ele><time>2026-04-25T12:29:49.199Z</time></trkpt><trkpt lat="43.7655913" lon="11.3728825"><ele>266.0</ele><time>2026-04-25T12:29:50.199Z</time></trkpt><trkpt lat="43.765542" lon="11.3730077"><ele>266.0</ele><time>2026-04-25T12:29:51.199Z</time></trkpt><trkpt lat="43.7654879" lon="11.3731033"><ele>266.0</ele><time>2026-04-25T12:29:52.199Z</time></trkpt><trkpt lat="43.7654161" lon="11.3731922"><ele>264.75</ele><time>2026-04-25T12:29:53.199Z</time></trkpt><trkpt lat="43.7653146" lon="11.3732383"><ele>263.5</ele><time>2026-04-25T12:29:54.199Z</time></trkpt><trkpt lat="43.7652076" lon="11.3733151"><ele>262.25</ele><time>2026-04-25T12:29:55.199Z</time></trkpt><trkpt lat="43.7650831" lon="11.3733852"><ele>261.0</ele><time>2026-04-25T12:29:56.199Z</time></trkpt><trkpt lat="43.7649765" lon="11.3734685"><ele>266.25</ele><time>2026-04-25T12:29:57.198Z</time></trkpt><trkpt lat="43.7648559" lon="11.3735593"><ele>271.5</ele><time>2026-04-25T12:29:58.198Z</time></trkpt><trkpt lat="43.7647352" lon="11.3736411"><ele>276.75</ele><time>2026-04-25T12:29:59.199Z</time></trkpt><trkpt lat="43.7646324" lon="11.3737276"><ele>282.0</ele><time>2026-04-25T12:30:00.198Z</time></trkpt><trkpt lat="43.7645415" lon="11.3738231"><ele>282.0</ele><time>2026-04-25T12:30:01.199Z</time></trkpt><trkpt lat="43.7644635" lon="11.37391"><ele>282.0</ele><time>2026-04-25T12:30:02.199Z</time></trkpt><trkpt lat="43.7643928" lon="11.3739833"><ele>282.0</ele><time>2026-04-25T12:30:03.199Z</time></trkpt><trkpt lat="43.7642959" lon="11.374028"><ele>282.0</ele><time>2026-04-25T12:30:04.199Z</time></trkpt><trkpt lat="43.7641869" lon="11.3740419"><ele>282.0</ele><time>2026-04-25T12:30:05.199Z</time></trkpt><trkpt lat="43.7640844" lon="11.3740902"><ele>282.0</ele><time>2026-04-25T12:30:06.199Z</time></trkpt><trkpt lat="43.7639822" lon="11.3741388"><ele>282.0</ele><time>2026-04-25T12:30:07.199Z</time></trkpt><trkpt lat="43.763876" lon="11.3741926"><ele>282.0</ele><time>2026-04-25T12:30:08.198Z</time></trkpt><trkpt lat="43.7637777" lon="11.3742584"><ele>282.0</ele><time>2026-04-25T12:30:09.199Z</time></trkpt><trkpt lat="43.7636782" lon="11.3743225"><ele>282.0</ele><time>2026-04-25T12:30:10.199Z</time></trkpt><trkpt lat="43.7635882" lon="11.3744152"><ele>282.5</ele><time>2026-04-25T12:30:11.199Z</time></trkpt><trkpt lat="43.7634986" lon="11.3745473"><ele>283.0</ele><time>2026-04-25T12:30:12.199Z</time></trkpt><trkpt lat="43.7634452" lon="11.3746827"><ele>283.5</ele><time>2026-04-25T12:30:13.199Z</time></trkpt><trkpt lat="43.7634088" lon="11.374838"><ele>284.0</ele><time>2026-04-25T12:30:14.199Z</time></trkpt><trkpt lat="43.7633713" lon="11.3750261"><ele>284.0</ele><time>2026-04-25T12:30:15.199Z</time></trkpt><trkpt lat="43.7633467" lon="11.3752121"><ele>284.0</ele><time>2026-04-25T12:30:16.199Z</time></trkpt><trkpt lat="43.7633182" lon="11.3754033"><ele>284.0</ele><time>2026-04-25T12:30:17.199Z</time></trkpt><trkpt lat="43.763279" lon="11.375596"><ele>284.0</ele><time>2026-04-25T12:30:18.199Z</time></trkpt><trkpt lat="43.7632262" lon="11.3757826"><ele>283.5</ele><time>2026-04-25T12:30:19.198Z</time></trkpt><trkpt lat="43.7631642" lon="11.3759643"><ele>283.0</ele><time>2026-04-25T12:30:20.199Z</time></trkpt><trkpt lat="43.7631078" lon="11.3761399"><ele>282.5</ele><time>2026-04-25T12:30:21.199Z</time></trkpt><trkpt lat="43.7630468" lon="11.3763107"><ele>282.0</ele><time>2026-04-25T12:30:22.199Z</time></trkpt><trkpt lat="43.7629786" lon="11.3764808"><ele>281.0</ele><time>2026-04-25T12:30:23.198Z</time></trkpt><trkpt lat="43.7629116" lon="11.3766418"><ele>280.0</ele><time>2026-04-25T12:30:24.199Z</time></trkpt><trkpt lat="43.7628399" lon="11.3768062"><ele>279.0</ele><time>2026-04-25T12:30:25.199Z</time></trkpt><trkpt lat="43.762762" lon="11.3769652"><ele>278.0</ele><time>2026-04-25T12:30:26.199Z</time></trkpt><trkpt lat="43.7626753" lon="11.3771276"><ele>283.6666666666667</ele><time>2026-04-25T12:30:27.198Z</time></trkpt><trkpt lat="43.7625869" lon="11.3772963"><ele>289.3333333333333</ele><time>2026-04-25T12:30:28.199Z</time></trkpt><trkpt lat="43.7624968" lon="11.37747"><ele>295.0</ele><time>2026-04-25T12:30:29.199Z</time></trkpt><trkpt lat="43.7624025" lon="11.377651"><ele>295.0</ele><time>2026-04-25T12:30:30.199Z</time></trkpt><trkpt lat="43.7623214" lon="11.3778025"><ele>295.0</ele><time>2026-04-25T12:30:31.199Z</time></trkpt><trkpt lat="43.7622488" lon="11.3779388"><ele>295.0</ele><time>2026-04-25T12:30:32.199Z</time></trkpt><trkpt lat="43.762182" lon="11.3780635"><ele>295.0</ele><time>2026-04-25T12:30:33.198Z</time></trkpt><trkpt lat="43.7621211" lon="11.3781978"><ele>293.5</ele><time>2026-04-25T12:30:34.199Z</time></trkpt><trkpt lat="43.7620593" lon="11.3783824"><ele>292.0</ele><time>2026-04-25T12:30:35.199Z</time></trkpt><trkpt lat="43.7620348" lon="11.3785487"><ele>290.5</ele><time>2026-04-25T12:30:36.199Z</time></trkpt><trkpt lat="43.7620214" lon="11.378723"><ele>289.0</ele><time>2026-04-25T12:30:37.198Z</time></trkpt><trkpt lat="43.762013" lon="11.3789008"><ele>289.0</ele><time>2026-04-25T12:30:38.199Z</time></trkpt><trkpt lat="43.7620081" lon="11.3790851"><ele>289.0</ele><time>2026-04-25T12:30:39.199Z</time></trkpt><trkpt lat="43.7620034" lon="11.3792715"><ele>289.0</ele><time>2026-04-25T12:30:40.199Z</time></trkpt><trkpt lat="43.7620033" lon="11.3794523"><ele>289.0</ele><time>2026-04-25T12:30:41.199Z</time></trkpt><trkpt lat="43.762" lon="11.3796239"><ele>291.25</ele><time>2026-04-25T12:30:42.199Z</time></trkpt><trkpt lat="43.7619895" lon="11.3798064"><ele>293.5</ele><time>2026-04-25T12:30:43.199Z</time></trkpt><trkpt lat="43.7619814" lon="11.3799799"><ele>295.75</ele><time>2026-04-25T12:30:44.198Z</time></trkpt><trkpt lat="43.7619668" lon="11.3801579"><ele>298.0</ele><time>2026-04-25T12:30:45.199Z</time></trkpt><trkpt lat="43.7619523" lon="11.38033"><ele>298.0</ele><time>2026-04-25T12:30:46.199Z</time></trkpt><trkpt lat="43.7619392" lon="11.3805049"><ele>298.0</ele><time>2026-04-25T12:30:47.199Z</time></trkpt><trkpt lat="43.7619259" lon="11.3806835"><ele>298.0</ele><time>2026-04-25T12:30:48.199Z</time></trkpt><trkpt lat="43.7619078" lon="11.3808556"><ele>298.0</ele><time>2026-04-25T12:30:49.199Z</time></trkpt><trkpt lat="43.7618939" lon="11.3810206"><ele>299.4</ele><time>2026-04-25T12:30:50.199Z</time></trkpt><trkpt lat="43.7618811" lon="11.3811802"><ele>300.8</ele><time>2026-04-25T12:30:51.198Z</time></trkpt><trkpt lat="43.7618682" lon="11.381339"><ele>302.2</ele><time>2026-04-25T12:30:52.199Z</time></trkpt><trkpt lat="43.7618531" lon="11.3814823"><ele>303.6</ele><time>2026-04-25T12:30:53.198Z</time></trkpt><trkpt lat="43.7618519" lon="11.3815968"><ele>305.0</ele><time>2026-04-25T12:30:54.199Z</time></trkpt><trkpt lat="43.7618408" lon="11.3817286"><ele>307.6666666666667</ele><time>2026-04-25T12:30:55.199Z</time></trkpt><trkpt lat="43.7618304" lon="11.3818568"><ele>310.33333333333337</ele><time>2026-04-25T12:30:56.199Z</time></trkpt><trkpt lat="43.7618264" lon="11.3819862"><ele>313.0</ele><time>2026-04-25T12:30:57.199Z</time></trkpt><trkpt lat="43.7618211" lon="11.382095"><ele>315.6666666666667</ele><time>2026-04-25T12:30:58.199Z</time></trkpt><trkpt lat="43.7618202" lon="11.3821825"><ele>318.3333333333333</ele><time>2026-04-25T12:30:59.198Z</time></trkpt><trkpt lat="43.761767" lon="11.382332"><ele>321.0</ele><time>2026-04-25T12:31:01.199Z</time></trkpt><trkpt lat="43.7616752" lon="11.3823869"><ele>321.4</ele><time>2026-04-25T12:31:03.199Z</time></trkpt><trkpt lat="43.7616131" lon="11.3823387"><ele>321.8</ele><time>2026-04-25T12:31:05.199Z</time></trkpt><trkpt lat="43.7615291" lon="11.3822924"><ele>322.2</ele><time>2026-04-25T12:31:25.198Z</time></trkpt><trkpt lat="43.7614182" lon="11.3822697"><ele>322.59999999999997</ele><time>2026-04-25T12:31:27.198Z</time></trkpt><trkpt lat="43.7612911" lon="11.3822294"><ele>323.0</ele><time>2026-04-25T12:31:29.199Z</time></trkpt><trkpt lat="43.7612154" lon="11.3822088"><ele>323.00000000000006</ele><time>2026-04-25T12:31:30.199Z</time></trkpt><trkpt lat="43.7611375" lon="11.3821988"><ele>323.0</ele><time>2026-04-25T12:31:31.198Z</time></trkpt><trkpt lat="43.7610651" lon="11.3821843"><ele>323.0</ele><time>2026-04-25T12:31:32.199Z</time></trkpt><trkpt lat="43.7610013" lon="11.3821766"><ele>323.0</ele><time>2026-04-25T12:31:33.199Z</time></trkpt><trkpt lat="43.7609118" lon="11.3821587"><ele>323.0</ele><time>2026-04-25T12:31:35.199Z</time></trkpt><trkpt lat="43.7608615" lon="11.3820748"><ele>323.00000000000006</ele><time>2026-04-25T12:31:37.199Z</time></trkpt><trkpt lat="43.7608501" lon="11.3819881"><ele>323.0</ele><time>2026-04-25T12:31:38.199Z</time></trkpt><trkpt lat="43.7608458" lon="11.3818914"><ele>324.0</ele><time>2026-04-25T12:31:39.199Z</time></trkpt><trkpt lat="43.7608447" lon="11.3817973"><ele>325.0</ele><time>2026-04-25T12:31:40.199Z</time></trkpt><trkpt lat="43.7608368" lon="11.3816974"><ele>326.0</ele><time>2026-04-25T12:31:41.199Z</time></trkpt><trkpt lat="43.7608178" lon="11.3816032"><ele>327.0</ele><time>2026-04-25T12:31:42.198Z</time></trkpt><trkpt lat="43.7607768" lon="11.3815121"><ele>328.0</ele><time>2026-04-25T12:31:43.198Z</time></trkpt><trkpt lat="43.7607238" lon="11.3814287"><ele>329.0</ele><time>2026-04-25T12:31:44.198Z</time></trkpt><trkpt lat="43.7606585" lon="11.3813471"><ele>329.0</ele><time>2026-04-25T12:31:45.199Z</time></trkpt><trkpt lat="43.7605898" lon="11.3812536"><ele>329.0</ele><time>2026-04-25T12:31:46.198Z</time></trkpt><trkpt lat="43.7605208" lon="11.3811538"><ele>329.0</ele><time>2026-04-25T12:31:47.199Z</time></trkpt><trkpt lat="43.7604586" lon="11.3810427"><ele>329.0</ele><time>2026-04-25T12:31:48.199Z</time></trkpt><trkpt lat="43.7604071" lon="11.3809403"><ele>329.0</ele><time>2026-04-25T12:31:49.199Z</time></trkpt><trkpt lat="43.7603641" lon="11.3808416"><ele>329.0</ele><time>2026-04-25T12:31:50.199Z</time></trkpt><trkpt lat="43.760329" lon="11.3807442"><ele>329.0</ele><time>2026-04-25T12:31:51.199Z</time></trkpt><trkpt lat="43.7602953" lon="11.3806496"><ele>329.0</ele><time>2026-04-25T12:31:52.199Z</time></trkpt><trkpt lat="43.7602635" lon="11.3805604"><ele>329.0</ele><time>2026-04-25T12:31:53.199Z</time></trkpt><trkpt lat="43.7602536" lon="11.3804686"><ele>329.0</ele><time>2026-04-25T12:31:54.199Z</time></trkpt><trkpt lat="43.7602484" lon="11.3803711"><ele>329.0</ele><time>2026-04-25T12:31:55.199Z</time></trkpt><trkpt lat="43.7602399" lon="11.3802728"><ele>329.0</ele><time>2026-04-25T12:31:56.199Z</time></trkpt><trkpt lat="43.7601865" lon="11.3801279"><ele>331.33333333333337</ele><time>2026-04-25T12:31:58.199Z</time></trkpt><trkpt lat="43.760081" lon="11.3800444"><ele>333.6666666666667</ele><time>2026-04-25T12:32:00.199Z</time></trkpt><trkpt lat="43.7600114" lon="11.3800275"><ele>336.0</ele><time>2026-04-25T12:32:01.199Z</time></trkpt><trkpt lat="43.759936" lon="11.3800212"><ele>338.3333333333333</ele><time>2026-04-25T12:32:02.199Z</time></trkpt><trkpt lat="43.7598522" lon="11.380008"><ele>340.66666666666663</ele><time>2026-04-25T12:32:03.199Z</time></trkpt><trkpt lat="43.7597681" lon="11.3800103"><ele>343.0</ele><time>2026-04-25T12:32:04.199Z</time></trkpt><trkpt lat="43.7596797" lon="11.3800118"><ele>343.0</ele><time>2026-04-25T12:32:05.199Z</time></trkpt><trkpt lat="43.7595982" lon="11.3800141"><ele>343.0</ele><time>2026-04-25T12:32:06.199Z</time></trkpt><trkpt lat="43.7595106" lon="11.3800084"><ele>343.0</ele><time>2026-04-25T12:32:07.199Z</time></trkpt><trkpt lat="43.7594279" lon="11.3799952"><ele>343.0</ele><time>2026-04-25T12:32:08.199Z</time></trkpt><trkpt lat="43.759305" lon="11.3799975"><ele>343.0</ele><time>2026-04-25T12:32:10.198Z</time></trkpt><trkpt lat="43.7592122" lon="11.3800843"><ele>345.3333333333333</ele><time>2026-04-25T12:32:12.198Z</time></trkpt><trkpt lat="43.7591785" lon="11.3802306"><ele>347.66666666666663</ele><time>2026-04-25T12:32:14.199Z</time></trkpt><trkpt lat="43.7591632" lon="11.3803358"><ele>350.0</ele><time>2026-04-25T12:32:15.198Z</time></trkpt><trkpt lat="43.7591504" lon="11.3804437"><ele>352.3333333333333</ele><time>2026-04-25T12:32:16.199Z</time></trkpt><trkpt lat="43.7591369" lon="11.3805569"><ele>354.6666666666667</ele><time>2026-04-25T12:32:17.199Z</time></trkpt><trkpt lat="43.7591223" lon="11.3806694"><ele>357.0</ele><time>2026-04-25T12:32:18.199Z</time></trkpt><trkpt lat="43.7591113" lon="11.3807766"><ele>357.6666666666667</ele><time>2026-04-25T12:32:19.199Z</time></trkpt><trkpt lat="43.7590861" lon="11.3809015"><ele>358.3333333333333</ele><time>2026-04-25T12:32:20.199Z</time></trkpt><trkpt lat="43.7590798" lon="11.3810028"><ele>359.0</ele><time>2026-04-25T12:32:21.199Z</time></trkpt><trkpt lat="43.7590725" lon="11.3811175"><ele>359.66666666666663</ele><time>2026-04-25T12:32:22.198Z</time></trkpt><trkpt lat="43.7590626" lon="11.3812318"><ele>360.3333333333333</ele><time>2026-04-25T12:32:23.199Z</time></trkpt><trkpt lat="43.7590529" lon="11.3813438"><ele>361.0</ele><time>2026-04-25T12:32:24.199Z</time></trkpt><trkpt lat="43.759044" lon="11.3814609"><ele>361.66666666666663</ele><time>2026-04-25T12:32:25.199Z</time></trkpt><trkpt lat="43.7590317" lon="11.3815753"><ele>362.3333333333333</ele><time>2026-04-25T12:32:26.199Z</time></trkpt><trkpt lat="43.7590178" lon="11.3816896"><ele>363.0</ele><time>2026-04-25T12:32:27.199Z</time></trkpt><trkpt lat="43.7590035" lon="11.3817949"><ele>363.6666666666667</ele><time>2026-04-25T12:32:28.199Z</time></trkpt><trkpt lat="43.7589859" lon="11.3818936"><ele>364.33333333333337</ele><time>2026-04-25T12:32:29.199Z</time></trkpt><trkpt lat="43.7589627" lon="11.3819778"><ele>365.0</ele><time>2026-04-25T12:32:30.199Z</time></trkpt><trkpt lat="43.7588833" lon="11.3820179"><ele>365.0</ele><time>2026-04-25T12:32:32.199Z</time></trkpt><trkpt lat="43.7588202" lon="11.3819448"><ele>365.0</ele><time>2026-04-25T12:32:34.199Z</time></trkpt><trkpt lat="43.7587781" lon="11.3817993"><ele>365.0</ele><time>2026-04-25T12:32:36.198Z</time></trkpt><trkpt lat="43.7587501" lon="11.3817152"><ele>365.0</ele><time>2026-04-25T12:32:37.199Z</time></trkpt><trkpt lat="43.7587122" lon="11.3816209"><ele>365.0</ele><time>2026-04-25T12:32:38.199Z</time></trkpt><trkpt lat="43.7586698" lon="11.3815335"><ele>365.0</ele><time>2026-04-25T12:32:39.199Z</time></trkpt><trkpt lat="43.7586222" lon="11.3814458"><ele>365.0</ele><time>2026-04-25T12:32:40.199Z</time></trkpt><trkpt lat="43.7585735" lon="11.381368"><ele>365.0</ele><time>2026-04-25T12:32:41.199Z</time></trkpt><trkpt lat="43.7585234" lon="11.3813023"><ele>365.0</ele><time>2026-04-25T12:32:42.199Z</time></trkpt><trkpt lat="43.7584172" lon="11.3812261"><ele>365.0</ele><time>2026-04-25T12:32:44.199Z</time></trkpt><trkpt lat="43.7583147" lon="11.3812369"><ele>365.0</ele><time>2026-04-25T12:32:46.199Z</time></trkpt><trkpt lat="43.7582479" lon="11.3813473"><ele>368.6666666666667</ele><time>2026-04-25T12:32:48.199Z</time></trkpt><trkpt lat="43.7582106" lon="11.3814702"><ele>372.33333333333337</ele><time>2026-04-25T12:32:50.199Z</time></trkpt><trkpt lat="43.7581856" lon="11.3815708"><ele>376.0</ele><time>2026-04-25T12:32:52.199Z</time></trkpt><trkpt lat="43.758165" lon="11.3816582"><ele>379.6666666666667</ele><time>2026-04-25T12:32:54.199Z</time></trkpt><trkpt lat="43.7581329" lon="11.3818033"><ele>383.3333333333333</ele><time>2026-04-25T12:32:56.199Z</time></trkpt><trkpt lat="43.7581062" lon="11.381898"><ele>387.0</ele><time>2026-04-25T12:32:57.199Z</time></trkpt><trkpt lat="43.7580824" lon="11.3820076"><ele>387.0</ele><time>2026-04-25T12:32:58.199Z</time></trkpt><trkpt lat="43.7580553" lon="11.3821283"><ele>387.0</ele><time>2026-04-25T12:32:59.199Z</time></trkpt><trkpt lat="43.7580258" lon="11.3822335"><ele>387.0</ele><time>2026-04-25T12:33:00.199Z</time></trkpt><trkpt lat="43.7580022" lon="11.382345"><ele>387.0</ele><time>2026-04-25T12:33:01.199Z</time></trkpt><trkpt lat="43.7579802" lon="11.3824519"><ele>387.0</ele><time>2026-04-25T12:33:02.199Z</time></trkpt><trkpt lat="43.7579491" lon="11.3825515"><ele>387.0</ele><time>2026-04-25T12:33:03.199Z</time></trkpt><trkpt lat="43.7579137" lon="11.3826547"><ele>386.40000000000003</ele><time>2026-04-25T12:33:04.199Z</time></trkpt><trkpt lat="43.7578485" lon="11.3827516"><ele>385.8</ele><time>2026-04-25T12:33:05.198Z</time></trkpt><trkpt lat="43.757775" lon="11.3828454"><ele>385.2</ele><time>2026-04-25T12:33:06.198Z</time></trkpt><trkpt lat="43.7577145" lon="11.3829197"><ele>384.6</ele><time>2026-04-25T12:33:07.199Z</time></trkpt><trkpt lat="43.7576554" lon="11.3830167"><ele>384.0</ele><time>2026-04-25T12:33:08.199Z</time></trkpt><trkpt lat="43.7576096" lon="11.3831154"><ele>386.8333333333333</ele><time>2026-04-25T12:33:09.199Z</time></trkpt><trkpt lat="43.7575817" lon="11.3832301"><ele>389.66666666666663</ele><time>2026-04-25T12:33:10.199Z</time></trkpt><trkpt lat="43.7575579" lon="11.3833498"><ele>392.5</ele><time>2026-04-25T12:33:11.199Z</time></trkpt><trkpt lat="43.7575565" lon="11.3834675"><ele>395.3333333333333</ele><time>2026-04-25T12:33:12.199Z</time></trkpt><trkpt lat="43.757545" lon="11.3835695"><ele>398.16666666666663</ele><time>2026-04-25T12:33:13.199Z</time></trkpt><trkpt lat="43.7575378" lon="11.3836671"><ele>401.0</ele><time>2026-04-25T12:33:14.198Z</time></trkpt><trkpt lat="43.757492" lon="11.3838206"><ele>400.6</ele><time>2026-04-25T12:33:15.199Z</time></trkpt><trkpt lat="43.757463" lon="11.3839541"><ele>400.20000000000005</ele><time>2026-04-25T12:33:16.199Z</time></trkpt><trkpt lat="43.7574361" lon="11.3841076"><ele>399.79999999999995</ele><time>2026-04-25T12:33:17.199Z</time></trkpt><trkpt lat="43.7574148" lon="11.384248"><ele>399.4</ele><time>2026-04-25T12:33:18.199Z</time></trkpt><trkpt lat="43.7573827" lon="11.3843621"><ele>399.0</ele><time>2026-04-25T12:33:19.199Z</time></trkpt><trkpt lat="43.7573376" lon="11.384448"><ele>399.0</ele><time>2026-04-25T12:33:20.199Z</time></trkpt><trkpt lat="43.7573285" lon="11.3845504"><ele>399.0</ele><time>2026-04-25T12:33:21.199Z</time></trkpt><trkpt lat="43.7573197" lon="11.3846537"><ele>399.0</ele><time>2026-04-25T12:33:22.198Z</time></trkpt><trkpt lat="43.7573334" lon="11.3847609"><ele>399.0</ele><time>2026-04-25T12:33:23.199Z</time></trkpt><trkpt lat="43.7573494" lon="11.3848846"><ele>399.0</ele><time>2026-04-25T12:33:24.199Z</time></trkpt><trkpt lat="43.7573685" lon="11.3849905"><ele>399.0</ele><time>2026-04-25T12:33:25.199Z</time></trkpt><trkpt lat="43.7573784" lon="11.385101"><ele>399.4</ele><time>2026-04-25T12:33:26.199Z</time></trkpt><trkpt lat="43.7573791" lon="11.3852063"><ele>399.79999999999995</ele><time>2026-04-25T12:33:27.198Z</time></trkpt><trkpt lat="43.7573692" lon="11.3853488"><ele>400.20000000000005</ele><time>2026-04-25T12:33:28.198Z</time></trkpt><trkpt lat="43.7573173" lon="11.3854703"><ele>400.6</ele><time>2026-04-25T12:33:29.199Z</time></trkpt><trkpt lat="43.7572981" lon="11.3855916"><ele>401.0</ele><time>2026-04-25T12:33:30.198Z</time></trkpt><trkpt lat="43.7572741" lon="11.3857352"><ele>401.20000000000005</ele><time>2026-04-25T12:33:31.199Z</time></trkpt><trkpt lat="43.7572716" lon="11.3858726"><ele>401.40000000000003</ele><time>2026-04-25T12:33:32.199Z</time></trkpt><trkpt lat="43.7572646" lon="11.3859903"><ele>401.6</ele><time>2026-04-25T12:33:33.199Z</time></trkpt><trkpt lat="43.7572669" lon="11.386134"><ele>401.8</ele><time>2026-04-25T12:33:34.199Z</time></trkpt><trkpt lat="43.7572568" lon="11.3862615"><ele>402.0</ele><time>2026-04-25T12:33:35.199Z</time></trkpt><trkpt lat="43.7572568" lon="11.3863784"><ele>402.0</ele><time>2026-04-25T12:33:36.199Z</time></trkpt><trkpt lat="43.7572581" lon="11.3865056"><ele>402.0</ele><time>2026-04-25T12:33:37.199Z</time></trkpt><trkpt lat="43.7572485" lon="11.3866086"><ele>402.0</ele><time>2026-04-25T12:33:38.199Z</time></trkpt><trkpt lat="43.7572352" lon="11.3867105"><ele>402.0</ele><time>2026-04-25T12:33:39.199Z</time></trkpt><trkpt lat="43.7572038" lon="11.3868166"><ele>402.0</ele><time>2026-04-25T12:33:40.199Z</time></trkpt><trkpt lat="43.7571793" lon="11.3869193"><ele>402.0</ele><time>2026-04-25T12:33:41.199Z</time></trkpt><trkpt lat="43.7571357" lon="11.3870097"><ele>402.0</ele><time>2026-04-25T12:33:42.199Z</time></trkpt><trkpt lat="43.7570425" lon="11.3871089"><ele>402.0</ele><time>2026-04-25T12:33:44.198Z</time></trkpt><trkpt lat="43.7569739" lon="11.3870857"><ele>402.0</ele><time>2026-04-25T12:33:46.199Z</time></trkpt><trkpt lat="43.756919" lon="11.3870074"><ele>402.0</ele><time>2026-04-25T12:33:48.199Z</time></trkpt><trkpt lat="43.7569244" lon="11.3869166"><ele>402.0</ele><time>2026-04-25T12:33:49.199Z</time></trkpt><trkpt lat="43.7569281" lon="11.3867351"><ele>402.0</ele><time>2026-04-25T12:33:51.199Z</time></trkpt><trkpt lat="43.7569283" lon="11.3866329"><ele>402.0</ele><time>2026-04-25T12:33:52.199Z</time></trkpt><trkpt lat="43.7569143" lon="11.3865128"><ele>402.0</ele><time>2026-04-25T12:33:53.199Z</time></trkpt><trkpt lat="43.7568944" lon="11.3863806"><ele>402.0</ele><time>2026-04-25T12:33:54.199Z</time></trkpt><trkpt lat="43.7568795" lon="11.3862478"><ele>402.0</ele><time>2026-04-25T12:33:55.199Z</time></trkpt><trkpt lat="43.7568619" lon="11.3861124"><ele>405.5</ele><time>2026-04-25T12:33:56.199Z</time></trkpt><trkpt lat="43.7568462" lon="11.385988"><ele>409.0</ele><time>2026-04-25T12:33:57.199Z</time></trkpt><trkpt lat="43.7568083" lon="11.3858821"><ele>412.5</ele><time>2026-04-25T12:33:58.199Z</time></trkpt><trkpt lat="43.7567933" lon="11.3857555"><ele>416.0</ele><time>2026-04-25T12:33:59.199Z</time></trkpt><trkpt lat="43.7567636" lon="11.3856443"><ele>419.5</ele><time>2026-04-25T12:34:00.199Z</time></trkpt><trkpt lat="43.7567494" lon="11.3855322"><ele>423.0</ele><time>2026-04-25T12:34:01.199Z</time></trkpt><trkpt lat="43.7567245" lon="11.3854037"><ele>424.0</ele><time>2026-04-25T12:34:02.198Z</time></trkpt><trkpt lat="43.756652" lon="11.385253"><ele>425.0</ele><time>2026-04-25T12:34:04.198Z</time></trkpt><trkpt lat="43.7565723" lon="11.3851587"><ele>425.99999999999994</ele><time>2026-04-25T12:34:05.199Z</time></trkpt><trkpt lat="43.756487" lon="11.3851032"><ele>427.0</ele><time>2026-04-25T12:34:06.199Z</time></trkpt><trkpt lat="43.7564441" lon="11.3850197"><ele>428.0</ele><time>2026-04-25T12:34:07.198Z</time></trkpt><trkpt lat="43.7563602" lon="11.3849568"><ele>427.99999999999994</ele><time>2026-04-25T12:34:08.199Z</time></trkpt><trkpt lat="43.756304" lon="11.3849111"><ele>428.0</ele><time>2026-04-25T12:34:09.198Z</time></trkpt><trkpt lat="43.7562381" lon="11.3848654"><ele>428.0</ele><time>2026-04-25T12:34:10.198Z</time></trkpt><trkpt lat="43.7561698" lon="11.3848434"><ele>428.0</ele><time>2026-04-25T12:34:11.199Z</time></trkpt><trkpt lat="43.7560975" lon="11.3848304"><ele>427.99999999999994</ele><time>2026-04-25T12:34:12.199Z</time></trkpt><trkpt lat="43.7560332" lon="11.3848115"><ele>428.0</ele><time>2026-04-25T12:34:13.199Z</time></trkpt><trkpt lat="43.7559387" lon="11.3847424"><ele>429.2</ele><time>2026-04-25T12:34:14.199Z</time></trkpt><trkpt lat="43.7558635" lon="11.3847005"><ele>430.4</ele><time>2026-04-25T12:34:15.199Z</time></trkpt><trkpt lat="43.7557778" lon="11.3846567"><ele>431.59999999999997</ele><time>2026-04-25T12:34:16.199Z</time></trkpt><trkpt lat="43.7556835" lon="11.3846054"><ele>432.79999999999995</ele><time>2026-04-25T12:34:17.199Z</time></trkpt><trkpt lat="43.7555918" lon="11.3845627"><ele>434.0</ele><time>2026-04-25T12:34:18.199Z</time></trkpt><trkpt lat="43.7555163" lon="11.3845274"><ele>436.8333333333333</ele><time>2026-04-25T12:34:19.198Z</time></trkpt><trkpt lat="43.7554264" lon="11.3844814"><ele>439.66666666666663</ele><time>2026-04-25T12:34:20.199Z</time></trkpt><trkpt lat="43.7553447" lon="11.3844346"><ele>442.5</ele><time>2026-04-25T12:34:21.199Z</time></trkpt><trkpt lat="43.7552635" lon="11.3843991"><ele>445.33333333333337</ele><time>2026-04-25T12:34:22.199Z</time></trkpt><trkpt lat="43.7551843" lon="11.3843981"><ele>448.1666666666667</ele><time>2026-04-25T12:34:23.199Z</time></trkpt><trkpt lat="43.755118" lon="11.38439"><ele>451.0</ele><time>2026-04-25T12:34:24.199Z</time></trkpt><trkpt lat="43.7550587" lon="11.3844238"><ele>451.6666666666667</ele><time>2026-04-25T12:34:25.198Z</time></trkpt><trkpt lat="43.7549881" lon="11.3844786"><ele>452.33333333333337</ele><time>2026-04-25T12:34:26.198Z</time></trkpt><trkpt lat="43.7549326" lon="11.3845441"><ele>453.0</ele><time>2026-04-25T12:34:27.199Z</time></trkpt><trkpt lat="43.7548752" lon="11.3846195"><ele>453.66666666666663</ele><time>2026-04-25T12:34:28.199Z</time></trkpt><trkpt lat="43.7548541" lon="11.3847392"><ele>454.3333333333333</ele><time>2026-04-25T12:34:29.199Z</time></trkpt><trkpt lat="43.7548124" lon="11.3848361"><ele>455.0</ele><time>2026-04-25T12:34:30.199Z</time></trkpt><trkpt lat="43.7547648" lon="11.3849261"><ele>452.99999999999994</ele><time>2026-04-25T12:34:31.199Z</time></trkpt><trkpt lat="43.7547197" lon="11.3850236"><ele>451.0</ele><time>2026-04-25T12:34:32.199Z</time></trkpt><trkpt lat="43.7546803" lon="11.3851213"><ele>449.0</ele><time>2026-04-25T12:34:33.199Z</time></trkpt><trkpt lat="43.7546453" lon="11.3852169"><ele>447.0</ele><time>2026-04-25T12:34:34.199Z</time></trkpt><trkpt lat="43.7545557" lon="11.3852649"><ele>444.99999999999994</ele><time>2026-04-25T12:34:35.199Z</time></trkpt><trkpt lat="43.7544868" lon="11.385314"><ele>443.0</ele><time>2026-04-25T12:34:36.199Z</time></trkpt><trkpt lat="43.75441" lon="11.3853309"><ele>445.2</ele><time>2026-04-25T12:34:37.199Z</time></trkpt><trkpt lat="43.7543402" lon="11.3853101"><ele>447.4</ele><time>2026-04-25T12:34:38.199Z</time></trkpt><trkpt lat="43.7542955" lon="11.3852409"><ele>449.59999999999997</ele><time>2026-04-25T12:34:39.199Z</time></trkpt><trkpt lat="43.7542201" lon="11.3851005"><ele>451.79999999999995</ele><time>2026-04-25T12:34:41.199Z</time></trkpt><trkpt lat="43.7541896" lon="11.3849694"><ele>454.0</ele><time>2026-04-25T12:34:43.198Z</time></trkpt><trkpt lat="43.7542243" lon="11.3848197"><ele>455.33333333333337</ele><time>2026-04-25T12:34:45.199Z</time></trkpt><trkpt lat="43.7542625" lon="11.3846377"><ele>456.6666666666667</ele><time>2026-04-25T12:34:47.199Z</time></trkpt><trkpt lat="43.7542793" lon="11.3845526"><ele>458.0</ele><time>2026-04-25T12:34:48.199Z</time></trkpt><trkpt lat="43.7542819" lon="11.3844607"><ele>459.33333333333337</ele><time>2026-04-25T12:34:49.199Z</time></trkpt><trkpt lat="43.7542895" lon="11.3843573"><ele>460.6666666666667</ele><time>2026-04-25T12:34:50.199Z</time></trkpt><trkpt lat="43.7542604" lon="11.3842573"><ele>462.0</ele><time>2026-04-25T12:34:51.199Z</time></trkpt><trkpt lat="43.7542439" lon="11.3841253"><ele>462.0</ele><time>2026-04-25T12:34:52.199Z</time></trkpt><trkpt lat="43.7542378" lon="11.3840043"><ele>462.0</ele><time>2026-04-25T12:34:53.199Z</time></trkpt><trkpt lat="43.7542098" lon="11.383898"><ele>462.0</ele><time>2026-04-25T12:34:54.198Z</time></trkpt><trkpt lat="43.7541942" lon="11.3837929"><ele>462.0</ele><time>2026-04-25T12:34:55.199Z</time></trkpt><trkpt lat="43.7541791" lon="11.3836828"><ele>462.0</ele><time>2026-04-25T12:34:56.199Z</time></trkpt><trkpt lat="43.7541637" lon="11.383551"><ele>462.0</ele><time>2026-04-25T12:34:57.198Z</time></trkpt><trkpt lat="43.7541487" lon="11.383442"><ele>463.6666666666667</ele><time>2026-04-25T12:34:58.198Z</time></trkpt><trkpt lat="43.7541341" lon="11.383324"><ele>465.33333333333337</ele><time>2026-04-25T12:34:59.199Z</time></trkpt><trkpt lat="43.7541185" lon="11.3832003"><ele>467.0</ele><time>2026-04-25T12:35:00.199Z</time></trkpt><trkpt lat="43.754104" lon="11.383081"><ele>468.6666666666667</ele><time>2026-04-25T12:35:01.199Z</time></trkpt><trkpt lat="43.7540821" lon="11.382958"><ele>470.33333333333337</ele><time>2026-04-25T12:35:02.199Z</time></trkpt><trkpt lat="43.7540593" lon="11.3828383"><ele>472.0</ele><time>2026-04-25T12:35:03.198Z</time></trkpt><trkpt lat="43.7540297" lon="11.3827245"><ele>474.8</ele><time>2026-04-25T12:35:04.199Z</time></trkpt><trkpt lat="43.7539969" lon="11.3826103"><ele>477.6</ele><time>2026-04-25T12:35:05.199Z</time></trkpt><trkpt lat="43.753965" lon="11.3824996"><ele>480.40000000000003</ele><time>2026-04-25T12:35:06.199Z</time></trkpt><trkpt lat="43.753931" lon="11.382389"><ele>483.20000000000005</ele><time>2026-04-25T12:35:07.199Z</time></trkpt><trkpt lat="43.7539012" lon="11.3822469"><ele>486.0</ele><time>2026-04-25T12:35:08.199Z</time></trkpt><trkpt lat="43.753871" lon="11.3821141"><ele>489.4</ele><time>2026-04-25T12:35:09.199Z</time></trkpt><trkpt lat="43.7538404" lon="11.3819864"><ele>492.8</ele><time>2026-04-25T12:35:10.199Z</time></trkpt><trkpt lat="43.7537868" lon="11.3818781"><ele>496.19999999999993</ele><time>2026-04-25T12:35:11.199Z</time></trkpt><trkpt lat="43.7537378" lon="11.3817641"><ele>499.59999999999997</ele><time>2026-04-25T12:35:12.199Z</time></trkpt><trkpt lat="43.7536769" lon="11.3816673"><ele>503.0</ele><time>2026-04-25T12:35:13.199Z</time></trkpt><trkpt lat="43.7536271" lon="11.3815627"><ele>502.99999999999994</ele><time>2026-04-25T12:35:14.198Z</time></trkpt><trkpt lat="43.7535754" lon="11.3814642"><ele>503.0</ele><time>2026-04-25T12:35:15.199Z</time></trkpt><trkpt lat="43.7535335" lon="11.3813616"><ele>503.0</ele><time>2026-04-25T12:35:16.199Z</time></trkpt><trkpt lat="43.7534886" lon="11.3812683"><ele>503.0</ele><time>2026-04-25T12:35:17.199Z</time></trkpt><trkpt lat="43.7534461" lon="11.3811676"><ele>502.99999999999994</ele><time>2026-04-25T12:35:18.198Z</time></trkpt><trkpt lat="43.7533922" lon="11.3810481"><ele>503.0</ele><time>2026-04-25T12:35:19.199Z</time></trkpt><trkpt lat="43.7533428" lon="11.3809601"><ele>503.99999999999994</ele><time>2026-04-25T12:35:20.199Z</time></trkpt><trkpt lat="43.7532868" lon="11.380886"><ele>505.0</ele><time>2026-04-25T12:35:21.198Z</time></trkpt><trkpt lat="43.7532052" lon="11.3808306"><ele>506.0</ele><time>2026-04-25T12:35:22.199Z</time></trkpt><trkpt lat="43.7531357" lon="11.3807987"><ele>507.0</ele><time>2026-04-25T12:35:23.198Z</time></trkpt><trkpt lat="43.7530579" lon="11.3807863"><ele>507.99999999999994</ele><time>2026-04-25T12:35:24.199Z</time></trkpt><trkpt lat="43.7529791" lon="11.3807983"><ele>509.0</ele><time>2026-04-25T12:35:25.199Z</time></trkpt><trkpt lat="43.7529005" lon="11.3808329"><ele>508.99999999999994</ele><time>2026-04-25T12:35:26.199Z</time></trkpt><trkpt lat="43.7528302" lon="11.3808759"><ele>509.0</ele><time>2026-04-25T12:35:27.199Z</time></trkpt><trkpt lat="43.7527627" lon="11.3809276"><ele>509.0</ele><time>2026-04-25T12:35:28.198Z</time></trkpt><trkpt lat="43.7526967" lon="11.3809765"><ele>509.0</ele><time>2026-04-25T12:35:29.199Z</time></trkpt><trkpt lat="43.7526362" lon="11.3810263"><ele>508.99999999999994</ele><time>2026-04-25T12:35:30.199Z</time></trkpt><trkpt lat="43.7525624" lon="11.3810609"><ele>509.0</ele><time>2026-04-25T12:35:31.199Z</time></trkpt><trkpt lat="43.7524903" lon="11.3810943"><ele>511.0</ele><time>2026-04-25T12:35:32.199Z</time></trkpt><trkpt lat="43.7523599" lon="11.3811319"><ele>513.0</ele><time>2026-04-25T12:35:34.199Z</time></trkpt><trkpt lat="43.7522763" lon="11.381123"><ele>515.0</ele><time>2026-04-25T12:35:35.199Z</time></trkpt><trkpt lat="43.7521913" lon="11.3811062"><ele>517.0</ele><time>2026-04-25T12:35:36.198Z</time></trkpt><trkpt lat="43.7521237" lon="11.3810787"><ele>519.0</ele><time>2026-04-25T12:35:37.199Z</time></trkpt><trkpt lat="43.7520245" lon="11.3810433"><ele>519.0</ele><time>2026-04-25T12:35:38.198Z</time></trkpt><trkpt lat="43.751935" lon="11.3810056"><ele>519.0</ele><time>2026-04-25T12:35:39.199Z</time></trkpt><trkpt lat="43.7518562" lon="11.3809702"><ele>519.0</ele><time>2026-04-25T12:35:40.199Z</time></trkpt><trkpt lat="43.7517721" lon="11.3809376"><ele>519.0</ele><time>2026-04-25T12:35:41.199Z</time></trkpt><trkpt lat="43.7516897" lon="11.3809054"><ele>519.0</ele><time>2026-04-25T12:35:42.198Z</time></trkpt><trkpt lat="43.7516121" lon="11.3808628"><ele>519.0</ele><time>2026-04-25T12:35:43.199Z</time></trkpt><trkpt lat="43.7515396" lon="11.3808105"><ele>519.8571428571429</ele><time>2026-04-25T12:35:44.199Z</time></trkpt><trkpt lat="43.7514787" lon="11.3807341"><ele>520.7142857142857</ele><time>2026-04-25T12:35:45.199Z</time></trkpt><trkpt lat="43.7514194" lon="11.3806512"><ele>521.5714285714286</ele><time>2026-04-25T12:35:46.199Z</time></trkpt><trkpt lat="43.7513752" lon="11.3805644"><ele>522.4285714285714</ele><time>2026-04-25T12:35:47.199Z</time></trkpt><trkpt lat="43.7513459" lon="11.3804751"><ele>523.2857142857142</ele><time>2026-04-25T12:35:48.198Z</time></trkpt><trkpt lat="43.7513306" lon="11.3803837"><ele>524.1428571428571</ele><time>2026-04-25T12:35:49.199Z</time></trkpt><trkpt lat="43.7513354" lon="11.3802948"><ele>525.0</ele><time>2026-04-25T12:35:50.199Z</time></trkpt><trkpt lat="43.7513981" lon="11.3801689"><ele>526.6666666666666</ele><time>2026-04-25T12:35:52.199Z</time></trkpt><trkpt lat="43.7514741" lon="11.3801508"><ele>528.3333333333334</ele><time>2026-04-25T12:35:53.199Z</time></trkpt><trkpt lat="43.7515495" lon="11.3801347"><ele>530.0</ele><time>2026-04-25T12:35:54.199Z</time></trkpt><trkpt lat="43.7516349" lon="11.3801702"><ele>531.6666666666667</ele><time>2026-04-25T12:35:55.199Z</time></trkpt><trkpt lat="43.7517211" lon="11.3802014"><ele>533.3333333333334</ele><time>2026-04-25T12:35:56.198Z</time></trkpt><trkpt lat="43.7518064" lon="11.3802121"><ele>535.0</ele><time>2026-04-25T12:35:57.199Z</time></trkpt><trkpt lat="43.7518792" lon="11.3802173"><ele>535.0</ele><time>2026-04-25T12:35:58.199Z</time></trkpt><trkpt lat="43.7519527" lon="11.3801991"><ele>535.0</ele><time>2026-04-25T12:35:59.198Z</time></trkpt><trkpt lat="43.7520273" lon="11.3801554"><ele>535.0</ele><time>2026-04-25T12:36:00.199Z</time></trkpt><trkpt lat="43.7521065" lon="11.3800918"><ele>535.0</ele><time>2026-04-25T12:36:01.199Z</time></trkpt><trkpt lat="43.7521774" lon="11.3800448"><ele>535.0</ele><time>2026-04-25T12:36:02.199Z</time></trkpt><trkpt lat="43.7522695" lon="11.3799804"><ele>535.0</ele><time>2026-04-25T12:36:03.199Z</time></trkpt><trkpt lat="43.752345" lon="11.3799254"><ele>535.0</ele><time>2026-04-25T12:36:04.199Z</time></trkpt><trkpt lat="43.7524307" lon="11.3798659"><ele>535.0</ele><time>2026-04-25T12:36:05.199Z</time></trkpt><trkpt lat="43.7525224" lon="11.3798237"><ele>535.0</ele><time>2026-04-25T12:36:06.199Z</time></trkpt><trkpt lat="43.7526171" lon="11.3797934"><ele>535.0</ele><time>2026-04-25T12:36:07.199Z</time></trkpt><trkpt lat="43.7526956" lon="11.3797654"><ele>535.0</ele><time>2026-04-25T12:36:08.199Z</time></trkpt><trkpt lat="43.7527839" lon="11.3797419"><ele>534.0</ele><time>2026-04-25T12:36:09.199Z</time></trkpt><trkpt lat="43.7528694" lon="11.3797317"><ele>533.0</ele><time>2026-04-25T12:36:10.199Z</time></trkpt><trkpt lat="43.7529467" lon="11.3797309"><ele>532.0</ele><time>2026-04-25T12:36:11.199Z</time></trkpt><trkpt lat="43.753028" lon="11.3797188"><ele>531.0</ele><time>2026-04-25T12:36:12.199Z</time></trkpt><trkpt lat="43.7531188" lon="11.3797028"><ele>530.0</ele><time>2026-04-25T12:36:13.199Z</time></trkpt><trkpt lat="43.7532236" lon="11.3796931"><ele>529.0</ele><time>2026-04-25T12:36:14.199Z</time></trkpt><trkpt lat="43.7533211" lon="11.3796835"><ele>529.0</ele><time>2026-04-25T12:36:15.199Z</time></trkpt><trkpt lat="43.7533963" lon="11.3796836"><ele>529.0</ele><time>2026-04-25T12:36:16.199Z</time></trkpt><trkpt lat="43.7534804" lon="11.3796927"><ele>529.0</ele><time>2026-04-25T12:36:17.199Z</time></trkpt><trkpt lat="43.7535634" lon="11.3796917"><ele>529.0</ele><time>2026-04-25T12:36:18.199Z</time></trkpt><trkpt lat="43.7536374" lon="11.3796705"><ele>529.0</ele><time>2026-04-25T12:36:19.199Z</time></trkpt><trkpt lat="43.7537289" lon="11.3796623"><ele>529.0</ele><time>2026-04-25T12:36:21.199Z</time></trkpt><trkpt lat="43.7538167" lon="11.3796666"><ele>528.0</ele><time>2026-04-25T12:36:23.199Z</time></trkpt><trkpt lat="43.7539441" lon="11.3795181"><ele>527.0</ele><time>2026-04-25T12:36:27.199Z</time></trkpt><trkpt lat="43.7539339" lon="11.3793881"><ele>526.0</ele><time>2026-04-25T12:36:29.199Z</time></trkpt><trkpt lat="43.753862" lon="11.3792678"><ele>525.0</ele><time>2026-04-25T12:36:31.199Z</time></trkpt><trkpt lat="43.7537913" lon="11.3791745"><ele>525.0</ele><time>2026-04-25T12:36:33.199Z</time></trkpt><trkpt lat="43.7537464" lon="11.3790908"><ele>525.0</ele><time>2026-04-25T12:36:34.199Z</time></trkpt><trkpt lat="43.7536547" lon="11.3789866"><ele>525.0</ele><time>2026-04-25T12:36:35.198Z</time></trkpt><trkpt lat="43.7535969" lon="11.3788863"><ele>525.0</ele><time>2026-04-25T12:36:36.198Z</time></trkpt><trkpt lat="43.7535365" lon="11.3787689"><ele>525.0</ele><time>2026-04-25T12:36:37.199Z</time></trkpt><trkpt lat="43.7534638" lon="11.3786836"><ele>528.0</ele><time>2026-04-25T12:36:38.199Z</time></trkpt><trkpt lat="43.7533951" lon="11.3785957"><ele>531.0</ele><time>2026-04-25T12:36:39.198Z</time></trkpt><trkpt lat="43.7533432" lon="11.3785126"><ele>534.0</ele><time>2026-04-25T12:36:40.199Z</time></trkpt><trkpt lat="43.7532878" lon="11.3784185"><ele>537.0</ele><time>2026-04-25T12:36:41.199Z</time></trkpt><trkpt lat="43.7532349" lon="11.3783395"><ele>540.0</ele><time>2026-04-25T12:36:42.199Z</time></trkpt><trkpt lat="43.7531847" lon="11.3782611"><ele>543.0</ele><time>2026-04-25T12:36:43.199Z</time></trkpt><trkpt lat="43.7531262" lon="11.378199"><ele>543.0</ele><time>2026-04-25T12:36:44.198Z</time></trkpt><trkpt lat="43.7530597" lon="11.3781292"><ele>543.0</ele><time>2026-04-25T12:36:45.199Z</time></trkpt><trkpt lat="43.7529983" lon="11.3780401"><ele>543.0</ele><time>2026-04-25T12:36:46.199Z</time></trkpt><trkpt lat="43.7529358" lon="11.3779442"><ele>543.0</ele><time>2026-04-25T12:36:47.199Z</time></trkpt><trkpt lat="43.7528777" lon="11.377865"><ele>543.0</ele><time>2026-04-25T12:36:48.199Z</time></trkpt><trkpt lat="43.7527838" lon="11.377754"><ele>543.8</ele><time>2026-04-25T12:36:50.199Z</time></trkpt><trkpt lat="43.7526717" lon="11.3776367"><ele>544.5999999999999</ele><time>2026-04-25T12:36:52.199Z</time></trkpt><trkpt lat="43.7526056" lon="11.3775512"><ele>545.4000000000001</ele><time>2026-04-25T12:36:53.199Z</time></trkpt><trkpt lat="43.7525441" lon="11.377464"><ele>546.2</ele><time>2026-04-25T12:36:54.199Z</time></trkpt><trkpt lat="43.7524731" lon="11.3773794"><ele>547.0</ele><time>2026-04-25T12:36:55.199Z</time></trkpt><trkpt lat="43.7524302" lon="11.3772961"><ele>544.3333333333334</ele><time>2026-04-25T12:36:56.199Z</time></trkpt><trkpt lat="43.7523888" lon="11.3771826"><ele>541.6666666666667</ele><time>2026-04-25T12:36:57.199Z</time></trkpt><trkpt lat="43.7523405" lon="11.3771245"><ele>539.0</ele><time>2026-04-25T12:36:58.199Z</time></trkpt><trkpt lat="43.7522952" lon="11.3770528"><ele>536.3333333333334</ele><time>2026-04-25T12:36:59.199Z</time></trkpt><trkpt lat="43.7522209" lon="11.3769809"><ele>533.6666666666666</ele><time>2026-04-25T12:37:00.199Z</time></trkpt><trkpt lat="43.7521388" lon="11.3769167"><ele>531.0</ele><time>2026-04-25T12:37:01.199Z</time></trkpt><trkpt lat="43.7520377" lon="11.3767709"><ele>531.0</ele><time>2026-04-25T12:37:03.199Z</time></trkpt><trkpt lat="43.7519848" lon="11.3767064"><ele>531.0</ele><time>2026-04-25T12:37:04.198Z</time></trkpt><trkpt lat="43.7519332" lon="11.3766434"><ele>531.0</ele><time>2026-04-25T12:37:05.199Z</time></trkpt><trkpt lat="43.7518839" lon="11.3765584"><ele>531.0</ele><time>2026-04-25T12:37:06.199Z</time></trkpt><trkpt lat="43.7518392" lon="11.3764735"><ele>531.0</ele><time>2026-04-25T12:37:07.199Z</time></trkpt><trkpt lat="43.7517874" lon="11.3763984"><ele>531.0</ele><time>2026-04-25T12:37:08.199Z</time></trkpt><trkpt lat="43.7517492" lon="11.3763034"><ele>531.0</ele><time>2026-04-25T12:37:10.199Z</time></trkpt><trkpt lat="43.751743" lon="11.3762016"><ele>531.0</ele><time>2026-04-25T12:37:12.198Z</time></trkpt><trkpt lat="43.751735" lon="11.3761117"><ele>531.0</ele><time>2026-04-25T12:37:17.199Z</time></trkpt><trkpt lat="43.7517369" lon="11.3760114"><ele>531.0</ele><time>2026-04-25T12:37:31.199Z</time></trkpt><trkpt lat="43.7517445" lon="11.3759227"><ele>531.0</ele><time>2026-04-25T12:37:35.199Z</time></trkpt><trkpt lat="43.7517457" lon="11.3758048"><ele>531.0</ele><time>2026-04-25T12:37:39.199Z</time></trkpt><trkpt lat="43.7517415" lon="11.3757034"><ele>531.0</ele><time>2026-04-25T12:37:42.199Z</time></trkpt><trkpt lat="43.7517346" lon="11.3755933"><ele>531.0</ele><time>2026-04-25T12:37:45.199Z</time></trkpt><trkpt lat="43.7517358" lon="11.3754849"><ele>531.0</ele><time>2026-04-25T12:37:48.199Z</time></trkpt><trkpt lat="43.7517436" lon="11.3753854"><ele>531.0</ele><time>2026-04-25T12:37:51.199Z</time></trkpt><trkpt lat="43.7517358" lon="11.3752973"><ele>531.0</ele><time>2026-04-25T12:37:54.198Z</time></trkpt><trkpt lat="43.7517226" lon="11.3752049"><ele>531.0</ele><time>2026-04-25T12:37:57.199Z</time></trkpt><trkpt lat="43.7517093" lon="11.3751146"><ele>531.0</ele><time>2026-04-25T12:37:59.199Z</time></trkpt><trkpt lat="43.7516923" lon="11.3750243"><ele>531.0</ele><time>2026-04-25T12:38:01.199Z</time></trkpt><trkpt lat="43.7516644" lon="11.3749286"><ele>531.0</ele><time>2026-04-25T12:38:04.199Z</time></trkpt><trkpt lat="43.7516378" lon="11.374839"><ele>531.0</ele><time>2026-04-25T12:38:07.198Z</time></trkpt><trkpt lat="43.7516184" lon="11.37475"><ele>531.0</ele><time>2026-04-25T12:38:11.198Z</time></trkpt><trkpt lat="43.751567" lon="11.3746457"><ele>531.0</ele><time>2026-04-25T12:38:15.199Z</time></trkpt><trkpt lat="43.7515358" lon="11.3745467"><ele>531.0</ele><time>2026-04-25T12:38:18.199Z</time></trkpt><trkpt lat="43.7514988" lon="11.3744377"><ele>531.0</ele><time>2026-04-25T12:38:21.199Z</time></trkpt><trkpt lat="43.7514601" lon="11.374363"><ele>531.0</ele><time>2026-04-25T12:38:24.199Z</time></trkpt><trkpt lat="43.7514091" lon="11.3742517"><ele>528.6666666666666</ele><time>2026-04-25T12:38:27.199Z</time></trkpt><trkpt lat="43.7513583" lon="11.3741504"><ele>526.3333333333334</ele><time>2026-04-25T12:38:30.199Z</time></trkpt><trkpt lat="43.7513082" lon="11.3740639"><ele>524.0</ele><time>2026-04-25T12:38:33.199Z</time></trkpt><trkpt lat="43.7512503" lon="11.3739934"><ele>521.6666666666667</ele><time>2026-04-25T12:38:37.199Z</time></trkpt><trkpt lat="43.7511756" lon="11.3739246"><ele>519.3333333333334</ele><time>2026-04-25T12:38:40.199Z</time></trkpt><trkpt lat="43.7511188" lon="11.3738782"><ele>517.0</ele><time>2026-04-25T12:38:42.199Z</time></trkpt><trkpt lat="43.7510408" lon="11.3738423"><ele>515.1428571428571</ele><time>2026-04-25T12:38:45.199Z</time></trkpt><trkpt lat="43.7509701" lon="11.3738301"><ele>513.2857142857143</ele><time>2026-04-25T12:38:49.199Z</time></trkpt><trkpt lat="43.7508912" lon="11.3738196"><ele>511.42857142857144</ele><time>2026-04-25T12:38:53.199Z</time></trkpt><trkpt lat="43.750828" lon="11.3738102"><ele>509.57142857142856</ele><time>2026-04-25T12:38:55.199Z</time></trkpt><trkpt lat="43.7507635" lon="11.3738059"><ele>507.7142857142857</ele><time>2026-04-25T12:38:58.199Z</time></trkpt><trkpt lat="43.7507108" lon="11.3737545"><ele>505.8571428571429</ele><time>2026-04-25T12:39:02.199Z</time></trkpt><trkpt lat="43.7507439" lon="11.3736526"><ele>504.0</ele><time>2026-04-25T12:39:06.199Z</time></trkpt><trkpt lat="43.7508089" lon="11.3736085"><ele>504.0</ele><time>2026-04-25T12:39:09.199Z</time></trkpt><trkpt lat="43.7508821" lon="11.3735506"><ele>504.0</ele><time>2026-04-25T12:39:13.199Z</time></trkpt><trkpt lat="43.7509223" lon="11.373477"><ele>504.0</ele><time>2026-04-25T12:39:17.198Z</time></trkpt><trkpt lat="43.7509615" lon="11.3733752"><ele>504.0</ele><time>2026-04-25T12:39:21.199Z</time></trkpt><trkpt lat="43.7509866" lon="11.3732751"><ele>504.0</ele><time>2026-04-25T12:39:25.199Z</time></trkpt><trkpt lat="43.750998" lon="11.3731642"><ele>504.0</ele><time>2026-04-25T12:39:29.199Z</time></trkpt><trkpt lat="43.7510311" lon="11.3730686"><ele>501.57142857142856</ele><time>2026-04-25T12:39:32.198Z</time></trkpt><trkpt lat="43.7510937" lon="11.3729697"><ele>499.1428571428571</ele><time>2026-04-25T12:39:35.199Z</time></trkpt><trkpt lat="43.7511297" lon="11.3728898"><ele>496.7142857142857</ele><time>2026-04-25T12:39:37.198Z</time></trkpt><trkpt lat="43.7511638" lon="11.3728074"><ele>494.2857142857143</ele><time>2026-04-25T12:39:40.199Z</time></trkpt><trkpt lat="43.7512037" lon="11.3727188"><ele>491.85714285714283</ele><time>2026-04-25T12:39:44.199Z</time></trkpt><trkpt lat="43.7512423" lon="11.3726428"><ele>489.42857142857144</ele><time>2026-04-25T12:39:48.199Z</time></trkpt><trkpt lat="43.7512717" lon="11.3725625"><ele>487.0</ele><time>2026-04-25T12:39:53.199Z</time></trkpt><trkpt lat="43.7512774" lon="11.3724663"><ele>487.00000000000006</ele><time>2026-04-25T12:39:58.199Z</time></trkpt><trkpt lat="43.7512848" lon="11.3723661"><ele>487.0</ele><time>2026-04-25T12:40:02.199Z</time></trkpt><trkpt lat="43.7512869" lon="11.372251"><ele>487.0</ele><time>2026-04-25T12:40:06.199Z</time></trkpt><trkpt lat="43.7512565" lon="11.3721571"><ele>487.0</ele><time>2026-04-25T12:40:10.199Z</time></trkpt><trkpt lat="43.7512094" lon="11.3720848"><ele>487.00000000000006</ele><time>2026-04-25T12:40:14.199Z</time></trkpt><trkpt lat="43.7511704" lon="11.3720031"><ele>487.0</ele><time>2026-04-25T12:40:17.199Z</time></trkpt><trkpt lat="43.7511411" lon="11.3718957"><ele>485.57142857142856</ele><time>2026-04-25T12:40:21.199Z</time></trkpt><trkpt lat="43.7511577" lon="11.3717962"><ele>484.1428571428571</ele><time>2026-04-25T12:40:26.199Z</time></trkpt><trkpt lat="43.7511747" lon="11.3716884"><ele>482.71428571428567</ele><time>2026-04-25T12:40:30.199Z</time></trkpt><trkpt lat="43.7511857" lon="11.3715936"><ele>481.2857142857143</ele><time>2026-04-25T12:40:34.199Z</time></trkpt><trkpt lat="43.751197" lon="11.371507"><ele>479.8571428571428</ele><time>2026-04-25T12:40:38.199Z</time></trkpt><trkpt lat="43.7512037" lon="11.3714003"><ele>478.4285714285714</ele><time>2026-04-25T12:40:41.199Z</time></trkpt><trkpt lat="43.7512022" lon="11.371305"><ele>477.0</ele><time>2026-04-25T12:40:44.199Z</time></trkpt><trkpt lat="43.7511925" lon="11.3712104"><ele>476.0</ele><time>2026-04-25T12:40:47.199Z</time></trkpt><trkpt lat="43.7511935" lon="11.3711022"><ele>475.0</ele><time>2026-04-25T12:40:51.199Z</time></trkpt><trkpt lat="43.7512286" lon="11.370994"><ele>474.0</ele><time>2026-04-25T12:40:55.199Z</time></trkpt><trkpt lat="43.7512505" lon="11.3709004"><ele>473.0</ele><time>2026-04-25T12:40:58.199Z</time></trkpt><trkpt lat="43.7512955" lon="11.3708238"><ele>472.0</ele><time>2026-04-25T12:41:02.199Z</time></trkpt><trkpt lat="43.7513469" lon="11.3707529"><ele>471.0</ele><time>2026-04-25T12:41:06.198Z</time></trkpt><trkpt lat="43.7514044" lon="11.3706909"><ele>471.0</ele><time>2026-04-25T12:41:09.199Z</time></trkpt><trkpt lat="43.751436" lon="11.3706033"><ele>471.0</ele><time>2026-04-25T12:41:11.199Z</time></trkpt><trkpt lat="43.7514493" lon="11.3704698"><ele>471.0</ele><time>2026-04-25T12:41:13.199Z</time></trkpt><trkpt lat="43.7514574" lon="11.3703517"><ele>471.0</ele><time>2026-04-25T12:41:15.199Z</time></trkpt><trkpt lat="43.7515148" lon="11.370298"><ele>471.0</ele><time>2026-04-25T12:41:18.199Z</time></trkpt><trkpt lat="43.75155" lon="11.3703931"><ele>471.0</ele><time>2026-04-25T12:41:22.199Z</time></trkpt><trkpt lat="43.7515428" lon="11.370517"><ele>471.00000000000006</ele><time>2026-04-25T12:41:25.199Z</time></trkpt><trkpt lat="43.7515994" lon="11.3705634"><ele>471.0</ele><time>2026-04-25T12:41:28.199Z</time></trkpt><trkpt lat="43.7516649" lon="11.3705364"><ele>471.00000000000006</ele><time>2026-04-25T12:41:31.199Z</time></trkpt><trkpt lat="43.7517201" lon="11.3704512"><ele>471.00000000000006</ele><time>2026-04-25T12:41:33.199Z</time></trkpt><trkpt lat="43.7517627" lon="11.3703766"><ele>471.0</ele><time>2026-04-25T12:41:35.199Z</time></trkpt><trkpt lat="43.7518231" lon="11.3704442"><ele>471.00000000000006</ele><time>2026-04-25T12:41:40.199Z</time></trkpt><trkpt lat="43.7517947" lon="11.3705233"><ele>471.00000000000006</ele><time>2026-04-25T12:41:41.199Z</time></trkpt><trkpt lat="43.751773" lon="11.3706193"><ele>471.0</ele><time>2026-04-25T12:41:43.199Z</time></trkpt><trkpt lat="43.7517558" lon="11.3707193"><ele>471.0</ele><time>2026-04-25T12:41:45.199Z</time></trkpt><trkpt lat="43.7517596" lon="11.3708709"><ele>471.0</ele><time>2026-04-25T12:41:47.199Z</time></trkpt><trkpt lat="43.7517688" lon="11.3709622"><ele>471.0</ele><time>2026-04-25T12:41:48.199Z</time></trkpt><trkpt lat="43.7517759" lon="11.3711079"><ele>471.0</ele><time>2026-04-25T12:41:50.199Z</time></trkpt><trkpt lat="43.7517378" lon="11.3711852"><ele>471.0</ele><time>2026-04-25T12:41:52.199Z</time></trkpt><trkpt lat="43.751702" lon="11.3711035"><ele>471.0</ele><time>2026-04-25T12:41:55.199Z</time></trkpt><trkpt lat="43.7516727" lon="11.3709992"><ele>471.0</ele><time>2026-04-25T12:41:57.198Z</time></trkpt><trkpt lat="43.7516362" lon="11.3708957"><ele>471.0</ele><time>2026-04-25T12:41:59.199Z</time></trkpt><trkpt lat="43.7515939" lon="11.3707997"><ele>471.0</ele><time>2026-04-25T12:42:01.199Z</time></trkpt><trkpt lat="43.7515298" lon="11.3707745"><ele>471.0</ele><time>2026-04-25T12:42:04.199Z</time></trkpt><trkpt lat="43.751497" lon="11.3708786"><ele>471.0</ele><time>2026-04-25T12:42:06.198Z</time></trkpt><trkpt lat="43.7514616" lon="11.3709705"><ele>471.0</ele><time>2026-04-25T12:42:08.198Z</time></trkpt><trkpt lat="43.7513814" lon="11.3709012"><ele>471.0</ele><time>2026-04-25T12:42:10.199Z</time></trkpt><trkpt lat="43.7513981" lon="11.3707713"><ele>471.0</ele><time>2026-04-25T12:42:12.199Z</time></trkpt><trkpt lat="43.7514291" lon="11.3706944"><ele>471.0</ele><time>2026-04-25T12:42:13.199Z</time></trkpt><trkpt lat="43.7514529" lon="11.3706025"><ele>471.0</ele><time>2026-04-25T12:42:14.199Z</time></trkpt><trkpt lat="43.7514638" lon="11.3705074"><ele>471.0</ele><time>2026-04-25T12:42:15.199Z</time></trkpt><trkpt lat="43.7514655" lon="11.3704187"><ele>471.28571428571433</ele><time>2026-04-25T12:42:16.199Z</time></trkpt><trkpt lat="43.7514903" lon="11.3703234"><ele>471.57142857142856</ele><time>2026-04-25T12:42:18.199Z</time></trkpt><trkpt lat="43.7515369" lon="11.3703894"><ele>471.8571428571429</ele><time>2026-04-25T12:42:23.198Z</time></trkpt><trkpt lat="43.7515508" lon="11.3704843"><ele>472.14285714285717</ele><time>2026-04-25T12:42:25.199Z</time></trkpt><trkpt lat="43.7516126" lon="11.3705184"><ele>472.42857142857144</ele><time>2026-04-25T12:42:27.199Z</time></trkpt><trkpt lat="43.7516843" lon="11.3705059"><ele>472.7142857142857</ele><time>2026-04-25T12:42:29.199Z</time></trkpt><trkpt lat="43.7517462" lon="11.3704058"><ele>473.0</ele><time>2026-04-25T12:42:31.199Z</time></trkpt><trkpt lat="43.7518117" lon="11.3703701"><ele>473.0</ele><time>2026-04-25T12:42:34.198Z</time></trkpt><trkpt lat="43.7518091" lon="11.3704904"><ele>472.99999999999994</ele><time>2026-04-25T12:42:37.198Z</time></trkpt><trkpt lat="43.751762" lon="11.3706316"><ele>472.99999999999994</ele><time>2026-04-25T12:42:39.199Z</time></trkpt><trkpt lat="43.7517526" lon="11.3708127"><ele>473.0</ele><time>2026-04-25T12:42:41.198Z</time></trkpt><trkpt lat="43.7517635" lon="11.3709078"><ele>473.0</ele><time>2026-04-25T12:42:42.199Z</time></trkpt><trkpt lat="43.7517698" lon="11.3710041"><ele>472.59999999999997</ele><time>2026-04-25T12:42:43.199Z</time></trkpt><trkpt lat="43.7517629" lon="11.3711513"><ele>472.19999999999993</ele><time>2026-04-25T12:42:45.199Z</time></trkpt><trkpt lat="43.7516948" lon="11.3711351"><ele>471.8</ele><time>2026-04-25T12:42:48.199Z</time></trkpt><trkpt lat="43.7516999" lon="11.3710349"><ele>471.4</ele><time>2026-04-25T12:42:49.198Z</time></trkpt><trkpt lat="43.7516827" lon="11.3708766"><ele>471.0</ele><time>2026-04-25T12:42:51.199Z</time></trkpt><trkpt lat="43.7516266" lon="11.3707481"><ele>471.0</ele><time>2026-04-25T12:42:53.198Z</time></trkpt><trkpt lat="43.7515635" lon="11.3707365"><ele>471.0</ele><time>2026-04-25T12:42:55.198Z</time></trkpt><trkpt lat="43.7515128" lon="11.3708307"><ele>471.0</ele><time>2026-04-25T12:42:57.199Z</time></trkpt><trkpt lat="43.7514699" lon="11.3709444"><ele>471.0</ele><time>2026-04-25T12:42:59.199Z</time></trkpt><trkpt lat="43.7514005" lon="11.3709426"><ele>471.0</ele><time>2026-04-25T12:43:01.199Z</time></trkpt><trkpt lat="43.7513802" lon="11.3708565"><ele>471.0</ele><time>2026-04-25T12:43:03.199Z</time></trkpt><trkpt lat="43.7514083" lon="11.3707603"><ele>471.0</ele><time>2026-04-25T12:43:04.199Z</time></trkpt><trkpt lat="43.7514387" lon="11.3706737"><ele>471.0</ele><time>2026-04-25T12:43:05.199Z</time></trkpt><trkpt lat="43.7514771" lon="11.3705297"><ele>471.0</ele><time>2026-04-25T12:43:07.199Z</time></trkpt><trkpt lat="43.7514344" lon="11.3704616"><ele>471.0</ele><time>2026-04-25T12:43:10.198Z</time></trkpt><trkpt lat="43.7513935" lon="11.3703377"><ele>471.0</ele><time>2026-04-25T12:49:00.198Z</time></trkpt><trkpt lat="43.7514115" lon="11.3702404"><ele>471.0</ele><time>2026-04-25T12:49:03.199Z</time></trkpt><trkpt lat="43.7514397" lon="11.3701359"><ele>471.3333333333333</ele><time>2026-04-25T12:49:06.199Z</time></trkpt><trkpt lat="43.7514767" lon="11.3700515"><ele>471.66666666666663</ele><time>2026-04-25T12:49:09.199Z</time></trkpt><trkpt lat="43.7515203" lon="11.3699574"><ele>472.0</ele><time>2026-04-25T12:49:12.198Z</time></trkpt><trkpt lat="43.7515481" lon="11.3698474"><ele>472.3333333333333</ele><time>2026-04-25T12:49:15.199Z</time></trkpt><trkpt lat="43.7515703" lon="11.3697287"><ele>472.66666666666663</ele><time>2026-04-25T12:49:18.199Z</time></trkpt><trkpt lat="43.7515845" lon="11.3696305"><ele>473.0</ele><time>2026-04-25T12:49:20.199Z</time></trkpt><trkpt lat="43.7515817" lon="11.3695294"><ele>473.49999999999994</ele><time>2026-04-25T12:49:22.198Z</time></trkpt><trkpt lat="43.7515703" lon="11.3694332"><ele>474.0</ele><time>2026-04-25T12:49:24.199Z</time></trkpt><trkpt lat="43.7515562" lon="11.3693282"><ele>474.5</ele><time>2026-04-25T12:49:26.199Z</time></trkpt><trkpt lat="43.7515381" lon="11.3692118"><ele>475.0</ele><time>2026-04-25T12:49:28.199Z</time></trkpt><trkpt lat="43.7515053" lon="11.3690863"><ele>475.49999999999994</ele><time>2026-04-25T12:49:30.199Z</time></trkpt><trkpt lat="43.7514908" lon="11.3689938"><ele>476.0</ele><time>2026-04-25T12:49:32.199Z</time></trkpt><trkpt lat="43.7514739" lon="11.3689025"><ele>474.8571428571429</ele><time>2026-04-25T12:49:34.199Z</time></trkpt><trkpt lat="43.7514548" lon="11.3687786"><ele>473.7142857142857</ele><time>2026-04-25T12:49:37.199Z</time></trkpt><trkpt lat="43.751441" lon="11.3686848"><ele>472.57142857142856</ele><time>2026-04-25T12:49:41.199Z</time></trkpt><trkpt lat="43.7514361" lon="11.368576"><ele>471.42857142857144</ele><time>2026-04-25T12:49:44.199Z</time></trkpt><trkpt lat="43.751425" lon="11.3684829"><ele>470.28571428571433</ele><time>2026-04-25T12:49:47.198Z</time></trkpt><trkpt lat="43.7514032" lon="11.3683965"><ele>469.14285714285717</ele><time>2026-04-25T12:49:50.198Z</time></trkpt><trkpt lat="43.7513927" lon="11.3683094"><ele>468.0</ele><time>2026-04-25T12:49:54.199Z</time></trkpt><trkpt lat="43.7513913" lon="11.3682099"><ele>468.0</ele><time>2026-04-25T12:49:58.199Z</time></trkpt><trkpt lat="43.7513795" lon="11.3681079"><ele>468.00000000000006</ele><time>2026-04-25T12:50:02.199Z</time></trkpt><trkpt lat="43.7513597" lon="11.3680076"><ele>468.0</ele><time>2026-04-25T12:50:06.199Z</time></trkpt><trkpt lat="43.7513628" lon="11.3679105"><ele>468.0</ele><time>2026-04-25T12:50:10.199Z</time></trkpt><trkpt lat="43.7513766" lon="11.3678197"><ele>468.00000000000006</ele><time>2026-04-25T12:50:14.198Z</time></trkpt><trkpt lat="43.7513566" lon="11.3677262"><ele>468.0</ele><time>2026-04-25T12:50:18.199Z</time></trkpt><trkpt lat="43.7513162" lon="11.3676532"><ele>468.0</ele><time>2026-04-25T12:50:22.198Z</time></trkpt><trkpt lat="43.751289" lon="11.3675667"><ele>465.6666666666667</ele><time>2026-04-25T12:50:26.198Z</time></trkpt><trkpt lat="43.7512777" lon="11.3674505"><ele>463.33333333333337</ele><time>2026-04-25T12:50:30.198Z</time></trkpt><trkpt lat="43.751254" lon="11.3673344"><ele>461.0</ele><time>2026-04-25T12:50:33.199Z</time></trkpt><trkpt lat="43.751216" lon="11.3672252"><ele>458.6666666666667</ele><time>2026-04-25T12:50:36.199Z</time></trkpt><trkpt lat="43.7511876" lon="11.3671332"><ele>456.33333333333337</ele><time>2026-04-25T12:50:38.198Z</time></trkpt><trkpt lat="43.7511669" lon="11.3670394"><ele>454.0</ele><time>2026-04-25T12:50:44.199Z</time></trkpt><trkpt lat="43.7511212" lon="11.3669573"><ele>452.8571428571429</ele><time>2026-04-25T12:50:48.199Z</time></trkpt><trkpt lat="43.7510816" lon="11.3668767"><ele>451.7142857142858</ele><time>2026-04-25T12:50:51.198Z</time></trkpt><trkpt lat="43.7510621" lon="11.3667773"><ele>450.57142857142856</ele><time>2026-04-25T12:50:55.199Z</time></trkpt><trkpt lat="43.751061" lon="11.3666805"><ele>449.42857142857144</ele><time>2026-04-25T12:50:59.199Z</time></trkpt><trkpt lat="43.7510621" lon="11.366586"><ele>448.2857142857143</ele><time>2026-04-25T12:51:03.199Z</time></trkpt><trkpt lat="43.7510432" lon="11.3664847"><ele>447.1428571428571</ele><time>2026-04-25T12:51:07.199Z</time></trkpt><trkpt lat="43.7510025" lon="11.3664094"><ele>446.0</ele><time>2026-04-25T12:51:10.198Z</time></trkpt><trkpt lat="43.750955" lon="11.3663282"><ele>444.42857142857144</ele><time>2026-04-25T12:51:13.198Z</time></trkpt><trkpt lat="43.7509296" lon="11.3662374"><ele>442.85714285714283</ele><time>2026-04-25T12:51:16.198Z</time></trkpt><trkpt lat="43.7509169" lon="11.3661472"><ele>441.28571428571433</ele><time>2026-04-25T12:51:19.199Z</time></trkpt><trkpt lat="43.7508889" lon="11.3660592"><ele>439.7142857142857</ele><time>2026-04-25T12:51:23.199Z</time></trkpt><trkpt lat="43.7508582" lon="11.3659822"><ele>438.14285714285717</ele><time>2026-04-25T12:51:27.199Z</time></trkpt><trkpt lat="43.7508282" lon="11.3658979"><ele>436.5714285714286</ele><time>2026-04-25T12:51:30.199Z</time></trkpt><trkpt lat="43.7508141" lon="11.3657879"><ele>435.0</ele><time>2026-04-25T12:51:33.199Z</time></trkpt><trkpt lat="43.7508118" lon="11.3656743"><ele>435.00000000000006</ele><time>2026-04-25T12:51:37.199Z</time></trkpt><trkpt lat="43.7508052" lon="11.3655665"><ele>435.0</ele><time>2026-04-25T12:51:41.199Z</time></trkpt><trkpt lat="43.7507808" lon="11.3654802"><ele>435.0</ele><time>2026-04-25T12:51:45.198Z</time></trkpt><trkpt lat="43.7507518" lon="11.3654021"><ele>435.0</ele><time>2026-04-25T12:51:48.199Z</time></trkpt><trkpt lat="43.7507261" lon="11.3653106"><ele>435.0</ele><time>2026-04-25T12:51:51.199Z</time></trkpt><trkpt lat="43.7507095" lon="11.3652075"><ele>435.00000000000006</ele><time>2026-04-25T12:51:55.199Z</time></trkpt><trkpt lat="43.7507077" lon="11.3651137"><ele>435.0</ele><time>2026-04-25T12:51:58.199Z</time></trkpt><trkpt lat="43.7507037" lon="11.3650188"><ele>433.6666666666667</ele><time>2026-04-25T12:52:01.199Z</time></trkpt><trkpt lat="43.7506837" lon="11.364907"><ele>432.33333333333337</ele><time>2026-04-25T12:52:04.198Z</time></trkpt><trkpt lat="43.7506732" lon="11.3648069"><ele>431.0</ele><time>2026-04-25T12:52:07.198Z</time></trkpt><trkpt lat="43.75068" lon="11.364692"><ele>429.6666666666667</ele><time>2026-04-25T12:52:11.199Z</time></trkpt><trkpt lat="43.7506966" lon="11.3646041"><ele>428.33333333333337</ele><time>2026-04-25T12:52:14.198Z</time></trkpt><trkpt lat="43.7506817" lon="11.3645012"><ele>427.0</ele><time>2026-04-25T12:52:18.199Z</time></trkpt><trkpt lat="43.7506488" lon="11.364398"><ele>425.50000000000006</ele><time>2026-04-25T12:52:22.199Z</time></trkpt><trkpt lat="43.7506182" lon="11.3643055"><ele>424.0</ele><time>2026-04-25T12:52:25.198Z</time></trkpt><trkpt lat="43.7505933" lon="11.3642022"><ele>422.5</ele><time>2026-04-25T12:52:29.198Z</time></trkpt><trkpt lat="43.7505787" lon="11.3640914"><ele>421.0</ele><time>2026-04-25T12:52:32.199Z</time></trkpt><trkpt lat="43.7505666" lon="11.3639784"><ele>419.50000000000006</ele><time>2026-04-25T12:52:36.198Z</time></trkpt><trkpt lat="43.7505644" lon="11.3638868"><ele>418.0</ele><time>2026-04-25T12:52:39.199Z</time></trkpt><trkpt lat="43.7505647" lon="11.3637634"><ele>416.50000000000006</ele><time>2026-04-25T12:52:42.199Z</time></trkpt><trkpt lat="43.7505737" lon="11.3636463"><ele>415.0</ele><time>2026-04-25T12:52:45.199Z</time></trkpt><trkpt lat="43.7505905" lon="11.3635524"><ele>413.5</ele><time>2026-04-25T12:52:48.199Z</time></trkpt><trkpt lat="43.7506081" lon="11.363439"><ele>412.0</ele><time>2026-04-25T12:52:51.198Z</time></trkpt><trkpt lat="43.750607" lon="11.3633365"><ele>410.50000000000006</ele><time>2026-04-25T12:52:55.198Z</time></trkpt><trkpt lat="43.7506129" lon="11.3632332"><ele>409.0</ele><time>2026-04-25T12:52:59.199Z</time></trkpt><trkpt lat="43.7506285" lon="11.3631232"><ele>407.4285714285714</ele><time>2026-04-25T12:53:03.199Z</time></trkpt><trkpt lat="43.7506108" lon="11.3630207"><ele>405.8571428571429</ele><time>2026-04-25T12:53:07.198Z</time></trkpt><trkpt lat="43.7505492" lon="11.3629656"><ele>404.2857142857143</ele><time>2026-04-25T12:53:11.199Z</time></trkpt><trkpt lat="43.7504795" lon="11.3629184"><ele>402.71428571428567</ele><time>2026-04-25T12:53:15.199Z</time></trkpt><trkpt lat="43.750418" lon="11.3628506"><ele>401.1428571428571</ele><time>2026-04-25T12:53:19.199Z</time></trkpt><trkpt lat="43.7504023" lon="11.3627634"><ele>399.57142857142856</ele><time>2026-04-25T12:53:22.199Z</time></trkpt><trkpt lat="43.750404" lon="11.3626733"><ele>398.0</ele><time>2026-04-25T12:53:25.199Z</time></trkpt><trkpt lat="43.7504054" lon="11.3625847"><ele>397.99999999999994</ele><time>2026-04-25T12:53:30.199Z</time></trkpt><trkpt lat="43.7504192" lon="11.3624912"><ele>398.0</ele><time>2026-04-25T12:53:38.199Z</time></trkpt><trkpt lat="43.750437" lon="11.3623919"><ele>398.0</ele><time>2026-04-25T12:53:44.199Z</time></trkpt><trkpt lat="43.7504186" lon="11.362295"><ele>398.0</ele><time>2026-04-25T12:53:49.199Z</time></trkpt><trkpt lat="43.7503821" lon="11.3622181"><ele>398.0</ele><time>2026-04-25T12:53:53.199Z</time></trkpt><trkpt lat="43.7503241" lon="11.3621676"><ele>397.99999999999994</ele><time>2026-04-25T12:53:57.199Z</time></trkpt><trkpt lat="43.7502551" lon="11.3621289"><ele>398.0</ele><time>2026-04-25T12:54:02.199Z</time></trkpt><trkpt lat="43.7502086" lon="11.3620501"><ele>395.85714285714283</ele><time>2026-04-25T12:54:08.199Z</time></trkpt><trkpt lat="43.7502257" lon="11.3619546"><ele>393.7142857142857</ele><time>2026-04-25T12:54:13.199Z</time></trkpt><trkpt lat="43.7502686" lon="11.361882"><ele>391.57142857142856</ele><time>2026-04-25T12:54:17.198Z</time></trkpt><trkpt lat="43.7503256" lon="11.3618053"><ele>389.42857142857144</ele><time>2026-04-25T12:54:21.198Z</time></trkpt><trkpt lat="43.7503889" lon="11.3617317"><ele>387.2857142857143</ele><time>2026-04-25T12:54:25.199Z</time></trkpt><trkpt lat="43.7504409" lon="11.3616811"><ele>385.1428571428571</ele><time>2026-04-25T12:54:28.199Z</time></trkpt><trkpt lat="43.7505124" lon="11.3616383"><ele>383.0</ele><time>2026-04-25T12:54:31.199Z</time></trkpt><trkpt lat="43.7505735" lon="11.3615987"><ele>383.0</ele><time>2026-04-25T12:54:34.199Z</time></trkpt><trkpt lat="43.7506308" lon="11.3615485"><ele>383.0</ele><time>2026-04-25T12:54:38.199Z</time></trkpt><trkpt lat="43.7506856" lon="11.3614789"><ele>383.0</ele><time>2026-04-25T12:54:43.199Z</time></trkpt><trkpt lat="43.7507064" lon="11.3613869"><ele>383.0</ele><time>2026-04-25T12:54:48.199Z</time></trkpt><trkpt lat="43.7507384" lon="11.3613008"><ele>383.0</ele><time>2026-04-25T12:54:52.199Z</time></trkpt><trkpt lat="43.7507787" lon="11.3612179"><ele>383.0</ele><time>2026-04-25T12:54:57.199Z</time></trkpt><trkpt lat="43.7508022" lon="11.3611225"><ele>383.0</ele><time>2026-04-25T12:55:02.199Z</time></trkpt><trkpt lat="43.7508282" lon="11.3610286"><ele>380.7142857142857</ele><time>2026-04-25T12:55:07.198Z</time></trkpt><trkpt lat="43.7508678" lon="11.3609481"><ele>378.42857142857144</ele><time>2026-04-25T12:55:11.199Z</time></trkpt><trkpt lat="43.7509075" lon="11.3608633"><ele>376.1428571428571</ele><time>2026-04-25T12:55:16.199Z</time></trkpt><trkpt lat="43.7509071" lon="11.3607658"><ele>373.8571428571429</ele><time>2026-04-25T12:55:20.199Z</time></trkpt><trkpt lat="43.7509" lon="11.3606662"><ele>371.5714285714286</ele><time>2026-04-25T12:55:24.198Z</time></trkpt><trkpt lat="43.7508596" lon="11.3605882"><ele>369.2857142857143</ele><time>2026-04-25T12:55:28.199Z</time></trkpt><trkpt lat="43.7507983" lon="11.360556"><ele>367.0</ele><time>2026-04-25T12:55:34.199Z</time></trkpt><trkpt lat="43.7507367" lon="11.3605153"><ele>367.0</ele><time>2026-04-25T12:55:40.199Z</time></trkpt><trkpt lat="43.7506641" lon="11.3605469"><ele>367.0</ele><time>2026-04-25T12:55:45.199Z</time></trkpt><trkpt lat="43.7506019" lon="11.3605095"><ele>367.0</ele><time>2026-04-25T12:55:50.199Z</time></trkpt><trkpt lat="43.7505865" lon="11.3604249"><ele>367.0</ele><time>2026-04-25T12:55:54.198Z</time></trkpt><trkpt lat="43.7505661" lon="11.3603334"><ele>367.0</ele><time>2026-04-25T12:56:00.199Z</time></trkpt><trkpt lat="43.7505175" lon="11.3602544"><ele>367.0</ele><time>2026-04-25T12:56:06.198Z</time></trkpt><trkpt lat="43.7504555" lon="11.3602049"><ele>367.0</ele><time>2026-04-25T12:56:10.199Z</time></trkpt><trkpt lat="43.7504166" lon="11.3601354"><ele>365.4285714285714</ele><time>2026-04-25T12:56:15.199Z</time></trkpt><trkpt lat="43.7503952" lon="11.3600529"><ele>363.8571428571429</ele><time>2026-04-25T12:56:19.199Z</time></trkpt><trkpt lat="43.7503726" lon="11.3599626"><ele>362.2857142857143</ele><time>2026-04-25T12:56:23.199Z</time></trkpt><trkpt lat="43.7503631" lon="11.359864"><ele>360.71428571428567</ele><time>2026-04-25T12:56:27.199Z</time></trkpt><trkpt lat="43.7503615" lon="11.3597649"><ele>359.1428571428571</ele><time>2026-04-25T12:56:31.199Z</time></trkpt><trkpt lat="43.7503647" lon="11.3596673"><ele>357.57142857142856</ele><time>2026-04-25T12:56:44.199Z</time></trkpt><trkpt lat="43.750404" lon="11.359592"><ele>356.0</ele><time>2026-04-25T12:56:48.198Z</time></trkpt><trkpt lat="43.7504454" lon="11.3595161"><ele>353.71428571428567</ele><time>2026-04-25T12:56:52.199Z</time></trkpt><trkpt lat="43.7504776" lon="11.359433"><ele>351.42857142857144</ele><time>2026-04-25T12:56:56.199Z</time></trkpt><trkpt lat="43.750493" lon="11.3593445"><ele>349.1428571428571</ele><time>2026-04-25T12:57:00.199Z</time></trkpt><trkpt lat="43.7505267" lon="11.3592535"><ele>346.85714285714283</ele><time>2026-04-25T12:57:04.199Z</time></trkpt><trkpt lat="43.7505656" lon="11.3591647"><ele>344.57142857142856</ele><time>2026-04-25T12:57:08.199Z</time></trkpt><trkpt lat="43.7506038" lon="11.3590916"><ele>342.2857142857143</ele><time>2026-04-25T12:57:12.199Z</time></trkpt><trkpt lat="43.7506494" lon="11.3590125"><ele>340.0</ele><time>2026-04-25T12:57:16.199Z</time></trkpt><trkpt lat="43.7506859" lon="11.3589368"><ele>337.14285714285717</ele><time>2026-04-25T12:57:20.198Z</time></trkpt><trkpt lat="43.7507168" lon="11.3588422"><ele>334.2857142857143</ele><time>2026-04-25T12:57:24.198Z</time></trkpt><trkpt lat="43.7507484" lon="11.3587657"><ele>331.42857142857144</ele><time>2026-04-25T12:57:27.199Z</time></trkpt><trkpt lat="43.7507921" lon="11.3586844"><ele>328.57142857142856</ele><time>2026-04-25T12:57:31.199Z</time></trkpt><trkpt lat="43.7508633" lon="11.3586029"><ele>325.7142857142857</ele><time>2026-04-25T12:57:51.199Z</time></trkpt><trkpt lat="43.7508934" lon="11.3585235"><ele>322.85714285714283</ele><time>2026-04-25T12:59:01.198Z</time></trkpt><trkpt lat="43.750931" lon="11.3584372"><ele>320.0</ele><time>2026-04-25T12:59:06.199Z</time></trkpt><trkpt lat="43.7509743" lon="11.3583597"><ele>320.0</ele><time>2026-04-25T12:59:11.198Z</time></trkpt><trkpt lat="43.7510346" lon="11.3583066"><ele>320.0</ele><time>2026-04-25T12:59:16.199Z</time></trkpt><trkpt lat="43.7510886" lon="11.3582593"><ele>320.0</ele><time>2026-04-25T12:59:21.199Z</time></trkpt><trkpt lat="43.7511491" lon="11.3581914"><ele>320.0</ele><time>2026-04-25T12:59:26.199Z</time></trkpt><trkpt lat="43.7512052" lon="11.3581383"><ele>320.0</ele><time>2026-04-25T12:59:30.199Z</time></trkpt><trkpt lat="43.7512701" lon="11.358152"><ele>320.0</ele><time>2026-04-25T12:59:34.199Z</time></trkpt><trkpt lat="43.7513119" lon="11.3582197"><ele>320.0</ele><time>2026-04-25T12:59:38.198Z</time></trkpt><trkpt lat="43.7513596" lon="11.3583002"><ele>319.7142857142857</ele><time>2026-04-25T12:59:43.199Z</time></trkpt><trkpt lat="43.7514055" lon="11.3583821"><ele>319.42857142857144</ele><time>2026-04-25T12:59:48.199Z</time></trkpt><trkpt lat="43.7514463" lon="11.3584542"><ele>319.1428571428571</ele><time>2026-04-25T12:59:54.199Z</time></trkpt><trkpt lat="43.7514882" lon="11.3585243"><ele>318.8571428571429</ele><time>2026-04-25T13:00:00.199Z</time></trkpt><trkpt lat="43.7515389" lon="11.3585786"><ele>318.5714285714286</ele><time>2026-04-25T13:00:04.199Z</time></trkpt><trkpt lat="43.7515893" lon="11.3586406"><ele>318.2857142857143</ele><time>2026-04-25T13:00:08.199Z</time></trkpt><trkpt lat="43.7516615" lon="11.3587035"><ele>318.0</ele><time>2026-04-25T13:00:12.199Z</time></trkpt><trkpt lat="43.751722" lon="11.358767"><ele>318.0</ele><time>2026-04-25T13:00:15.199Z</time></trkpt><trkpt lat="43.7517774" lon="11.3588364"><ele>318.0</ele><time>2026-04-25T13:00:19.199Z</time></trkpt><trkpt lat="43.7518242" lon="11.3588951"><ele>318.0</ele><time>2026-04-25T13:00:22.199Z</time></trkpt><trkpt lat="43.7518696" lon="11.3589694"><ele>318.0</ele><time>2026-04-25T13:00:26.199Z</time></trkpt><trkpt lat="43.7519227" lon="11.3590465"><ele>318.0</ele><time>2026-04-25T13:00:34.199Z</time></trkpt><trkpt lat="43.7519447" lon="11.3591308"><ele>318.0</ele><time>2026-04-25T13:00:37.199Z</time></trkpt><trkpt lat="43.7519788" lon="11.3592082"><ele>318.0</ele><time>2026-04-25T13:00:40.199Z</time></trkpt><trkpt lat="43.7520118" lon="11.359291"><ele>318.7142857142857</ele><time>2026-04-25T13:00:43.198Z</time></trkpt><trkpt lat="43.752043" lon="11.3593679"><ele>319.42857142857144</ele><time>2026-04-25T13:00:47.199Z</time></trkpt><trkpt lat="43.7520729" lon="11.3594518"><ele>320.14285714285717</ele><time>2026-04-25T13:00:54.199Z</time></trkpt><trkpt lat="43.7521126" lon="11.359536"><ele>320.8571428571429</ele><time>2026-04-25T13:00:58.199Z</time></trkpt><trkpt lat="43.7521426" lon="11.3596184"><ele>321.57142857142856</ele><time>2026-04-25T13:01:01.199Z</time></trkpt><trkpt lat="43.7521696" lon="11.359708"><ele>322.28571428571433</ele><time>2026-04-25T13:01:05.199Z</time></trkpt><trkpt lat="43.7521898" lon="11.3597928"><ele>323.0</ele><time>2026-04-25T13:01:09.199Z</time></trkpt><trkpt lat="43.7522192" lon="11.3598765"><ele>323.00000000000006</ele><time>2026-04-25T13:01:13.199Z</time></trkpt><trkpt lat="43.752245" lon="11.3599747"><ele>323.0</ele><time>2026-04-25T13:01:17.198Z</time></trkpt><trkpt lat="43.752253" lon="11.3600762"><ele>323.0</ele><time>2026-04-25T13:01:21.199Z</time></trkpt><trkpt lat="43.7522703" lon="11.3601715"><ele>323.0</ele><time>2026-04-25T13:01:25.199Z</time></trkpt><trkpt lat="43.7522999" lon="11.3602586"><ele>323.0</ele><time>2026-04-25T13:01:29.199Z</time></trkpt><trkpt lat="43.7523364" lon="11.3603336"><ele>323.00000000000006</ele><time>2026-04-25T13:01:33.199Z</time></trkpt><trkpt lat="43.7523784" lon="11.3604024"><ele>323.0</ele><time>2026-04-25T13:01:38.199Z</time></trkpt><trkpt lat="43.7523988" lon="11.3605062"><ele>325.33333333333337</ele><time>2026-04-25T13:01:43.199Z</time></trkpt><trkpt lat="43.7524245" lon="11.3606088"><ele>327.6666666666667</ele><time>2026-04-25T13:01:47.199Z</time></trkpt><trkpt lat="43.7524525" lon="11.3607071"><ele>330.0</ele><time>2026-04-25T13:01:51.198Z</time></trkpt><trkpt lat="43.7524907" lon="11.3607936"><ele>332.3333333333333</ele><time>2026-04-25T13:01:54.198Z</time></trkpt><trkpt lat="43.7525385" lon="11.3609002"><ele>334.66666666666663</ele><time>2026-04-25T13:01:57.199Z</time></trkpt><trkpt lat="43.7525716" lon="11.3609937"><ele>337.0</ele><time>2026-04-25T13:02:01.198Z</time></trkpt><trkpt lat="43.7526065" lon="11.361085"><ele>337.00000000000006</ele><time>2026-04-25T13:02:04.198Z</time></trkpt><trkpt lat="43.7526438" lon="11.361172"><ele>337.0</ele><time>2026-04-25T13:02:09.198Z</time></trkpt><trkpt lat="43.7526857" lon="11.3612396"><ele>337.0</ele><time>2026-04-25T13:02:14.199Z</time></trkpt><trkpt lat="43.7527448" lon="11.3613138"><ele>337.0</ele><time>2026-04-25T13:02:20.199Z</time></trkpt><trkpt lat="43.7527883" lon="11.3613773"><ele>337.0</ele><time>2026-04-25T13:02:24.199Z</time></trkpt><trkpt lat="43.7528279" lon="11.3614458"><ele>337.00000000000006</ele><time>2026-04-25T13:02:28.199Z</time></trkpt><trkpt lat="43.7528727" lon="11.3615245"><ele>337.0</ele><time>2026-04-25T13:02:33.199Z</time></trkpt><trkpt lat="43.7529291" lon="11.3615675"><ele>336.8571428571429</ele><time>2026-04-25T13:02:37.199Z</time></trkpt><trkpt lat="43.7529934" lon="11.3616053"><ele>336.7142857142857</ele><time>2026-04-25T13:02:42.199Z</time></trkpt><trkpt lat="43.7530525" lon="11.3616487"><ele>336.57142857142856</ele><time>2026-04-25T13:02:49.199Z</time></trkpt><trkpt lat="43.7531134" lon="11.361707"><ele>336.42857142857144</ele><time>2026-04-25T13:02:59.199Z</time></trkpt><trkpt lat="43.7531718" lon="11.3617596"><ele>336.2857142857143</ele><time>2026-04-25T13:03:07.199Z</time></trkpt><trkpt lat="43.7532314" lon="11.3617922"><ele>336.14285714285717</ele><time>2026-04-25T13:03:12.199Z</time></trkpt><trkpt lat="43.7533031" lon="11.3618224"><ele>336.0</ele><time>2026-04-25T13:03:18.199Z</time></trkpt><trkpt lat="43.7533634" lon="11.361862"><ele>336.0</ele><time>2026-04-25T13:03:22.199Z</time></trkpt><trkpt lat="43.7534213" lon="11.3619109"><ele>336.0</ele><time>2026-04-25T13:03:28.199Z</time></trkpt><trkpt lat="43.7534849" lon="11.3619651"><ele>336.0</ele><time>2026-04-25T13:03:33.199Z</time></trkpt><trkpt lat="43.7535515" lon="11.3620049"><ele>336.0</ele><time>2026-04-25T13:03:37.199Z</time></trkpt><trkpt lat="43.7536129" lon="11.3620659"><ele>336.0</ele><time>2026-04-25T13:03:42.199Z</time></trkpt><trkpt lat="43.7536615" lon="11.3621277"><ele>336.0</ele><time>2026-04-25T13:03:46.199Z</time></trkpt><trkpt lat="43.7537193" lon="11.3621973"><ele>336.0</ele><time>2026-04-25T13:03:50.199Z</time></trkpt><trkpt lat="43.753812" lon="11.3622849"><ele>340.0</ele><time>2026-04-25T13:09:38.199Z</time></trkpt><trkpt lat="43.7538814" lon="11.3623482"><ele>340.0</ele><time>2026-04-25T13:15:24.199Z</time></trkpt></trkseg><trkseg><trkpt lat="43.7534302" lon="11.3580415"><ele>290.6</ele><time>2026-04-25T13:37:41.172Z</time></trkpt><trkpt lat="43.7534783" lon="11.3579624"><ele>288.20000000000005</ele><time>2026-04-25T13:37:43.172Z</time></trkpt><trkpt lat="43.7535367" lon="11.3578511"><ele>285.8</ele><time>2026-04-25T13:37:49.172Z</time></trkpt><trkpt lat="43.7535541" lon="11.3577541"><ele>283.40000000000003</ele><time>2026-04-25T13:37:50.171Z</time></trkpt><trkpt lat="43.7535752" lon="11.3576115"><ele>281.0</ele><time>2026-04-25T13:37:52.172Z</time></trkpt><trkpt lat="43.75359" lon="11.3574278"><ele>285.42857142857144</ele><time>2026-04-25T13:37:54.172Z</time></trkpt><trkpt lat="43.7536018" lon="11.357338"><ele>289.8571428571429</ele><time>2026-04-25T13:37:55.172Z</time></trkpt><trkpt lat="43.7536256" lon="11.3572442"><ele>294.28571428571433</ele><time>2026-04-25T13:37:56.172Z</time></trkpt><trkpt lat="43.7536316" lon="11.3571387"><ele>298.7142857142857</ele><time>2026-04-25T13:37:57.172Z</time></trkpt><trkpt lat="43.7536366" lon="11.357048"><ele>303.1428571428571</ele><time>2026-04-25T13:37:58.171Z</time></trkpt><trkpt lat="43.7536295" lon="11.3569474"><ele>307.5714285714286</ele><time>2026-04-25T13:37:59.172Z</time></trkpt><trkpt lat="43.7536195" lon="11.3568522"><ele>312.0</ele><time>2026-04-25T13:38:00.172Z</time></trkpt><trkpt lat="43.7535909" lon="11.3567693"><ele>312.0</ele><time>2026-04-25T13:38:01.172Z</time></trkpt><trkpt lat="43.7535672" lon="11.3565838"><ele>312.0</ele><time>2026-04-25T13:38:03.172Z</time></trkpt><trkpt lat="43.753552" lon="11.3564769"><ele>312.0</ele><time>2026-04-25T13:38:04.172Z</time></trkpt><trkpt lat="43.7535369" lon="11.3563719"><ele>312.0</ele><time>2026-04-25T13:38:05.172Z</time></trkpt><trkpt lat="43.7535158" lon="11.3562655"><ele>312.0</ele><time>2026-04-25T13:38:06.171Z</time></trkpt><trkpt lat="43.7534878" lon="11.3561706"><ele>312.0</ele><time>2026-04-25T13:38:07.172Z</time></trkpt><trkpt lat="43.7534789" lon="11.3560707"><ele>307.2</ele><time>2026-04-25T13:38:08.172Z</time></trkpt><trkpt lat="43.753455" lon="11.3559645"><ele>302.4</ele><time>2026-04-25T13:38:09.172Z</time></trkpt><trkpt lat="43.7534473" lon="11.3558562"><ele>297.6</ele><time>2026-04-25T13:38:10.172Z</time></trkpt><trkpt lat="43.7534319" lon="11.3557648"><ele>292.8</ele><time>2026-04-25T13:38:11.171Z</time></trkpt><trkpt lat="43.7534003" lon="11.3556078"><ele>288.0</ele><time>2026-04-25T13:38:13.172Z</time></trkpt><trkpt lat="43.7533607" lon="11.355456"><ele>288.00000000000006</ele><time>2026-04-25T13:38:15.172Z</time></trkpt><trkpt lat="43.7533372" lon="11.3553623"><ele>288.0</ele><time>2026-04-25T13:38:16.171Z</time></trkpt><trkpt lat="43.7533077" lon="11.3552799"><ele>288.0</ele><time>2026-04-25T13:38:17.172Z</time></trkpt><trkpt lat="43.7532843" lon="11.3551937"><ele>288.0</ele><time>2026-04-25T13:38:18.172Z</time></trkpt><trkpt lat="43.7532544" lon="11.3550989"><ele>288.0</ele><time>2026-04-25T13:38:19.172Z</time></trkpt><trkpt lat="43.7532374" lon="11.3549973"><ele>288.00000000000006</ele><time>2026-04-25T13:38:20.172Z</time></trkpt><trkpt lat="43.753219" lon="11.354906"><ele>288.0</ele><time>2026-04-25T13:38:21.172Z</time></trkpt><trkpt lat="43.7531853" lon="11.3548006"><ele>288.0</ele><time>2026-04-25T13:38:22.172Z</time></trkpt><trkpt lat="43.7531455" lon="11.3547096"><ele>288.0</ele><time>2026-04-25T13:38:23.172Z</time></trkpt><trkpt lat="43.7531086" lon="11.3545916"><ele>288.0</ele><time>2026-04-25T13:38:24.172Z</time></trkpt><trkpt lat="43.7530706" lon="11.3544962"><ele>288.0</ele><time>2026-04-25T13:38:25.172Z</time></trkpt><trkpt lat="43.7530349" lon="11.3543826"><ele>288.0</ele><time>2026-04-25T13:38:26.172Z</time></trkpt><trkpt lat="43.7530052" lon="11.354271"><ele>288.0</ele><time>2026-04-25T13:38:27.172Z</time></trkpt><trkpt lat="43.7529824" lon="11.3541734"><ele>289.6666666666667</ele><time>2026-04-25T13:38:28.172Z</time></trkpt><trkpt lat="43.752983" lon="11.3540846"><ele>291.3333333333333</ele><time>2026-04-25T13:38:29.172Z</time></trkpt><trkpt lat="43.7529421" lon="11.3539214"><ele>293.0</ele><time>2026-04-25T13:38:31.172Z</time></trkpt><trkpt lat="43.7529084" lon="11.3538328"><ele>294.66666666666663</ele><time>2026-04-25T13:38:32.172Z</time></trkpt><trkpt lat="43.7528705" lon="11.3537417"><ele>296.3333333333333</ele><time>2026-04-25T13:38:33.172Z</time></trkpt><trkpt lat="43.7528098" lon="11.3536591"><ele>298.0</ele><time>2026-04-25T13:38:34.172Z</time></trkpt><trkpt lat="43.7527643" lon="11.3535612"><ele>296.16666666666663</ele><time>2026-04-25T13:38:35.172Z</time></trkpt><trkpt lat="43.7527257" lon="11.3534701"><ele>294.3333333333333</ele><time>2026-04-25T13:38:36.172Z</time></trkpt><trkpt lat="43.7526834" lon="11.3533689"><ele>292.5</ele><time>2026-04-25T13:38:37.171Z</time></trkpt><trkpt lat="43.7526404" lon="11.3532588"><ele>290.6666666666667</ele><time>2026-04-25T13:38:38.171Z</time></trkpt><trkpt lat="43.7526075" lon="11.3531645"><ele>288.83333333333337</ele><time>2026-04-25T13:38:39.172Z</time></trkpt><trkpt lat="43.7525574" lon="11.3530698"><ele>287.0</ele><time>2026-04-25T13:38:40.172Z</time></trkpt><trkpt lat="43.7525013" lon="11.35297"><ele>287.0</ele><time>2026-04-25T13:38:41.172Z</time></trkpt><trkpt lat="43.7524611" lon="11.352861"><ele>287.0</ele><time>2026-04-25T13:38:42.172Z</time></trkpt><trkpt lat="43.7523974" lon="11.3527811"><ele>287.0</ele><time>2026-04-25T13:38:43.172Z</time></trkpt><trkpt lat="43.7523543" lon="11.3526708"><ele>287.0</ele><time>2026-04-25T13:38:44.172Z</time></trkpt><trkpt lat="43.7523031" lon="11.3525698"><ele>287.0</ele><time>2026-04-25T13:38:45.172Z</time></trkpt><trkpt lat="43.7522616" lon="11.3525019"><ele>287.0</ele><time>2026-04-25T13:38:46.172Z</time></trkpt><trkpt lat="43.7522138" lon="11.3524179"><ele>287.0</ele><time>2026-04-25T13:38:47.172Z</time></trkpt><trkpt lat="43.752167" lon="11.3522749"><ele>287.0</ele><time>2026-04-25T13:38:49.172Z</time></trkpt><trkpt lat="43.7521346" lon="11.3521847"><ele>287.0</ele><time>2026-04-25T13:38:50.172Z</time></trkpt><trkpt lat="43.7521012" lon="11.3520891"><ele>287.0</ele><time>2026-04-25T13:38:51.172Z</time></trkpt><trkpt lat="43.7520544" lon="11.3519721"><ele>287.0</ele><time>2026-04-25T13:38:52.172Z</time></trkpt><trkpt lat="43.7520198" lon="11.3518719"><ele>287.0</ele><time>2026-04-25T13:38:53.172Z</time></trkpt><trkpt lat="43.7519606" lon="11.3517668"><ele>289.4</ele><time>2026-04-25T13:38:54.172Z</time></trkpt><trkpt lat="43.7519067" lon="11.3516299"><ele>291.79999999999995</ele><time>2026-04-25T13:38:55.172Z</time></trkpt><trkpt lat="43.7518741" lon="11.3515315"><ele>294.2</ele><time>2026-04-25T13:38:56.171Z</time></trkpt><trkpt lat="43.7518584" lon="11.3514345"><ele>296.59999999999997</ele><time>2026-04-25T13:38:57.172Z</time></trkpt><trkpt lat="43.7518387" lon="11.3513366"><ele>299.0</ele><time>2026-04-25T13:38:58.172Z</time></trkpt><trkpt lat="43.7518193" lon="11.3511611"><ele>293.0</ele><time>2026-04-25T13:39:00.172Z</time></trkpt><trkpt lat="43.7518082" lon="11.3510548"><ele>287.0</ele><time>2026-04-25T13:39:01.172Z</time></trkpt><trkpt lat="43.7517964" lon="11.3509503"><ele>281.0</ele><time>2026-04-25T13:39:02.172Z</time></trkpt><trkpt lat="43.7517811" lon="11.3508222"><ele>275.0</ele><time>2026-04-25T13:39:03.172Z</time></trkpt><trkpt lat="43.7518086" lon="11.3507333"><ele>269.0</ele><time>2026-04-25T13:39:04.172Z</time></trkpt><trkpt lat="43.7518309" lon="11.3506252"><ele>263.0</ele><time>2026-04-25T13:39:05.172Z</time></trkpt><trkpt lat="43.7518609" lon="11.3505209"><ele>266.6666666666667</ele><time>2026-04-25T13:39:06.172Z</time></trkpt><trkpt lat="43.7518966" lon="11.3504453"><ele>270.33333333333337</ele><time>2026-04-25T13:39:07.172Z</time></trkpt><trkpt lat="43.7519336" lon="11.3503578"><ele>274.0</ele><time>2026-04-25T13:39:08.172Z</time></trkpt><trkpt lat="43.7519718" lon="11.3502683"><ele>277.6666666666667</ele><time>2026-04-25T13:39:09.172Z</time></trkpt><trkpt lat="43.7520107" lon="11.3501702"><ele>281.3333333333333</ele><time>2026-04-25T13:39:10.172Z</time></trkpt><trkpt lat="43.7520085" lon="11.3500057"><ele>285.0</ele><time>2026-04-25T13:39:12.172Z</time></trkpt><trkpt lat="43.7520005" lon="11.3499184"><ele>285.0</ele><time>2026-04-25T13:39:13.172Z</time></trkpt><trkpt lat="43.7519868" lon="11.3498306"><ele>285.0</ele><time>2026-04-25T13:39:14.172Z</time></trkpt><trkpt lat="43.7519608" lon="11.349638"><ele>285.0</ele><time>2026-04-25T13:39:16.172Z</time></trkpt><trkpt lat="43.7519801" lon="11.3495293"><ele>285.0</ele><time>2026-04-25T13:39:18.172Z</time></trkpt><trkpt lat="43.7520359" lon="11.3494569"><ele>285.0</ele><time>2026-04-25T13:39:21.172Z</time></trkpt><trkpt lat="43.7520906" lon="11.3493724"><ele>285.0</ele><time>2026-04-25T13:39:24.172Z</time></trkpt><trkpt lat="43.7521645" lon="11.3493179"><ele>266.0</ele><time>2026-04-25T13:39:26.172Z</time></trkpt><trkpt lat="43.7522661" lon="11.3492677"><ele>266.0</ele><time>2026-04-25T13:39:28.172Z</time></trkpt><trkpt lat="43.7523547" lon="11.3492127"><ele>266.0</ele><time>2026-04-25T13:39:30.172Z</time></trkpt><trkpt lat="43.7524482" lon="11.3491903"><ele>266.0</ele><time>2026-04-25T13:39:32.172Z</time></trkpt><trkpt lat="43.7525234" lon="11.3491754"><ele>266.0</ele><time>2026-04-25T13:39:34.172Z</time></trkpt></trkseg></trk></gpx>